<?xml version="1.0" encoding="UTF-8" standalone="no" ?>
<gpx xmlns="http://www.topografix.com/GPX/1/1" xmlns:xsi="http://www.w3.org/2001/XMLSchema-instance" xsi:schemaLocation="http://www.topografix.com/GPX/1/1 http://www.topografix.com/GPX/1/1/gpx.xsd" version="1.1" creator="VisuGPX - https://www.visugpx.com">
  <metadata>
    <name>MONT MORBIER</name>
    <desc><![CDATA[MONT MORBIER EN SKI DE RANDONNEE]]></desc>
  </metadata>
  <trk>
    <name><![CDATA[2012-12-12 17:15:37]]></name>
    <trkseg>
      <trkpt lat="45.60922" lon="6.1115">
        <ele>1005.05</ele>
        <time>2012-12-12T13:35:55Z</time>
      </trkpt>
      <trkpt lat="45.60922" lon="6.1115">
        <ele>998.68</ele>
        <time>2012-12-12T13:35:56Z</time>
      </trkpt>
      <trkpt lat="45.60922" lon="6.1115">
        <ele>993.14</ele>
        <time>2012-12-12T13:35:57Z</time>
      </trkpt>
      <trkpt lat="45.60924" lon="6.11152">
        <ele>988.91</ele>
        <time>2012-12-12T13:35:59Z</time>
      </trkpt>
      <trkpt lat="45.60926" lon="6.11154">
        <ele>988.21</ele>
        <time>2012-12-12T13:36:01Z</time>
      </trkpt>
      <trkpt lat="45.60928" lon="6.11156">
        <ele>988.19</ele>
        <time>2012-12-12T13:36:02Z</time>
      </trkpt>
      <trkpt lat="45.60952" lon="6.11178">
        <ele>991.48</ele>
        <time>2012-12-12T13:36:20Z</time>
      </trkpt>
      <trkpt lat="45.60968" lon="6.11192">
        <ele>994.45</ele>
        <time>2012-12-12T13:36:32Z</time>
      </trkpt>
      <trkpt lat="45.60982" lon="6.11193">
        <ele>996.98</ele>
        <time>2012-12-12T13:36:43Z</time>
      </trkpt>
      <trkpt lat="45.60983" lon="6.11193">
        <ele>997.02</ele>
        <time>2012-12-12T13:36:44Z</time>
      </trkpt>
      <trkpt lat="45.60988" lon="6.11203">
        <ele>997.85</ele>
        <time>2012-12-12T13:36:49Z</time>
      </trkpt>
      <trkpt lat="45.60989" lon="6.11227">
        <ele>1000.67</ele>
        <time>2012-12-12T13:37:01Z</time>
      </trkpt>
      <trkpt lat="45.60987" lon="6.11246">
        <ele>1002.84</ele>
        <time>2012-12-12T13:37:11Z</time>
      </trkpt>
      <trkpt lat="45.60987" lon="6.11247">
        <ele>1003.05</ele>
        <time>2012-12-12T13:37:12Z</time>
      </trkpt>
      <trkpt lat="45.60987" lon="6.11262">
        <ele>1005.89</ele>
        <time>2012-12-12T13:37:22Z</time>
      </trkpt>
      <trkpt lat="45.60991" lon="6.11268">
        <ele>1007.65</ele>
        <time>2012-12-12T13:37:28Z</time>
      </trkpt>
      <trkpt lat="45.60996" lon="6.11279">
        <ele>1009.27</ele>
        <time>2012-12-12T13:37:36Z</time>
      </trkpt>
      <trkpt lat="45.60995" lon="6.11286">
        <ele>1010.43</ele>
        <time>2012-12-12T13:37:40Z</time>
      </trkpt>
      <trkpt lat="45.60999" lon="6.11294">
        <ele>1012.29</ele>
        <time>2012-12-12T13:37:47Z</time>
      </trkpt>
      <trkpt lat="45.60999" lon="6.11305">
        <ele>1015.66</ele>
        <time>2012-12-12T13:37:58Z</time>
      </trkpt>
      <trkpt lat="45.60994" lon="6.11309">
        <ele>1017.48</ele>
        <time>2012-12-12T13:38:08Z</time>
      </trkpt>
      <trkpt lat="45.6099" lon="6.11316">
        <ele>1018.58</ele>
        <time>2012-12-12T13:38:13Z</time>
      </trkpt>
      <trkpt lat="45.60993" lon="6.11326">
        <ele>1021.26</ele>
        <time>2012-12-12T13:38:24Z</time>
      </trkpt>
      <trkpt lat="45.60998" lon="6.11327">
        <ele>1022.2</ele>
        <time>2012-12-12T13:38:28Z</time>
      </trkpt>
      <trkpt lat="45.61002" lon="6.1133">
        <ele>1023.03</ele>
        <time>2012-12-12T13:38:32Z</time>
      </trkpt>
      <trkpt lat="45.61008" lon="6.11342">
        <ele>1025.1</ele>
        <time>2012-12-12T13:38:43Z</time>
      </trkpt>
      <trkpt lat="45.61007" lon="6.11346">
        <ele>1025.91</ele>
        <time>2012-12-12T13:38:46Z</time>
      </trkpt>
      <trkpt lat="45.61005" lon="6.11363">
        <ele>1028.89</ele>
        <time>2012-12-12T13:38:57Z</time>
      </trkpt>
      <trkpt lat="45.61002" lon="6.11381">
        <ele>1031.89</ele>
        <time>2012-12-12T13:39:09Z</time>
      </trkpt>
      <trkpt lat="45.61004" lon="6.11391">
        <ele>1033.75</ele>
        <time>2012-12-12T13:39:15Z</time>
      </trkpt>
      <trkpt lat="45.61003" lon="6.11399">
        <ele>1035.4</ele>
        <time>2012-12-12T13:39:21Z</time>
      </trkpt>
      <trkpt lat="45.61002" lon="6.11404">
        <ele>1036.76</ele>
        <time>2012-12-12T13:39:25Z</time>
      </trkpt>
      <trkpt lat="45.61004" lon="6.11421">
        <ele>1039.74</ele>
        <time>2012-12-12T13:39:37Z</time>
      </trkpt>
      <trkpt lat="45.60999" lon="6.11435">
        <ele>1042.51</ele>
        <time>2012-12-12T13:39:48Z</time>
      </trkpt>
      <trkpt lat="45.60999" lon="6.11441">
        <ele>1043.59</ele>
        <time>2012-12-12T13:39:52Z</time>
      </trkpt>
      <trkpt lat="45.61006" lon="6.11453">
        <ele>1046.43</ele>
        <time>2012-12-12T13:40:04Z</time>
      </trkpt>
      <trkpt lat="45.61017" lon="6.11462">
        <ele>1049.5</ele>
        <time>2012-12-12T13:40:16Z</time>
      </trkpt>
      <trkpt lat="45.61021" lon="6.11468">
        <ele>1048.96</ele>
        <time>2012-12-12T13:40:20Z</time>
      </trkpt>
      <trkpt lat="45.61025" lon="6.1147">
        <ele>1049.07</ele>
        <time>2012-12-12T13:40:41Z</time>
      </trkpt>
      <trkpt lat="45.61043" lon="6.1149">
        <ele>1050.65</ele>
        <time>2012-12-12T13:40:56Z</time>
      </trkpt>
      <trkpt lat="45.61043" lon="6.1149">
        <ele>1050.77</ele>
        <time>2012-12-12T13:40:57Z</time>
      </trkpt>
      <trkpt lat="45.6106" lon="6.115">
        <ele>1052.68</ele>
        <time>2012-12-12T13:41:10Z</time>
      </trkpt>
      <trkpt lat="45.61066" lon="6.11507">
        <ele>1053.83</ele>
        <time>2012-12-12T13:41:16Z</time>
      </trkpt>
      <trkpt lat="45.61079" lon="6.11522">
        <ele>1056.78</ele>
        <time>2012-12-12T13:41:29Z</time>
      </trkpt>
      <trkpt lat="45.61079" lon="6.11521">
        <ele>1056.79</ele>
        <time>2012-12-12T13:41:55Z</time>
      </trkpt>
      <trkpt lat="45.6108" lon="6.11521">
        <ele>1057.48</ele>
        <time>2012-12-12T13:42:22Z</time>
      </trkpt>
      <trkpt lat="45.61082" lon="6.11528">
        <ele>1057.78</ele>
        <time>2012-12-12T13:42:44Z</time>
      </trkpt>
      <trkpt lat="45.61082" lon="6.11529">
        <ele>1057.82</ele>
        <time>2012-12-12T13:42:50Z</time>
      </trkpt>
      <trkpt lat="45.61087" lon="6.11533">
        <ele>1058.64</ele>
        <time>2012-12-12T13:42:54Z</time>
      </trkpt>
      <trkpt lat="45.61093" lon="6.11534">
        <ele>1059.35</ele>
        <time>2012-12-12T13:42:58Z</time>
      </trkpt>
      <trkpt lat="45.61096" lon="6.11537">
        <ele>1059.92</ele>
        <time>2012-12-12T13:43:01Z</time>
      </trkpt>
      <trkpt lat="45.61097" lon="6.1154">
        <ele>1060.69</ele>
        <time>2012-12-12T13:43:05Z</time>
      </trkpt>
      <trkpt lat="45.61105" lon="6.11545">
        <ele>1063.54</ele>
        <time>2012-12-12T13:43:15Z</time>
      </trkpt>
      <trkpt lat="45.61105" lon="6.11547">
        <ele>1064.07</ele>
        <time>2012-12-12T13:43:17Z</time>
      </trkpt>
      <trkpt lat="45.61101" lon="6.11566">
        <ele>1066.3</ele>
        <time>2012-12-12T13:43:27Z</time>
      </trkpt>
      <trkpt lat="45.61096" lon="6.1158">
        <ele>1066.89</ele>
        <time>2012-12-12T13:43:37Z</time>
      </trkpt>
      <trkpt lat="45.61099" lon="6.11584">
        <ele>1068.23</ele>
        <time>2012-12-12T13:43:43Z</time>
      </trkpt>
      <trkpt lat="45.61101" lon="6.11587">
        <ele>1069.28</ele>
        <time>2012-12-12T13:43:46Z</time>
      </trkpt>
      <trkpt lat="45.61105" lon="6.11611">
        <ele>1072.69</ele>
        <time>2012-12-12T13:43:59Z</time>
      </trkpt>
      <trkpt lat="45.6111" lon="6.11607">
        <ele>1074.64</ele>
        <time>2012-12-12T13:44:06Z</time>
      </trkpt>
      <trkpt lat="45.61119" lon="6.11598">
        <ele>1078.11</ele>
        <time>2012-12-12T13:44:18Z</time>
      </trkpt>
      <trkpt lat="45.61128" lon="6.11594">
        <ele>1080.58</ele>
        <time>2012-12-12T13:44:32Z</time>
      </trkpt>
      <trkpt lat="45.61138" lon="6.11594">
        <ele>1083.76</ele>
        <time>2012-12-12T13:44:49Z</time>
      </trkpt>
      <trkpt lat="45.61141" lon="6.11596">
        <ele>1084.77</ele>
        <time>2012-12-12T13:44:53Z</time>
      </trkpt>
      <trkpt lat="45.61142" lon="6.11601">
        <ele>1085.64</ele>
        <time>2012-12-12T13:44:56Z</time>
      </trkpt>
      <trkpt lat="45.6114" lon="6.11619">
        <ele>1088.91</ele>
        <time>2012-12-12T13:45:08Z</time>
      </trkpt>
      <trkpt lat="45.6114" lon="6.11625">
        <ele>1090.34</ele>
        <time>2012-12-12T13:45:20Z</time>
      </trkpt>
      <trkpt lat="45.6114" lon="6.11631">
        <ele>1091.34</ele>
        <time>2012-12-12T13:45:41Z</time>
      </trkpt>
      <trkpt lat="45.61142" lon="6.11643">
        <ele>1092.75</ele>
        <time>2012-12-12T13:45:58Z</time>
      </trkpt>
      <trkpt lat="45.61142" lon="6.11653">
        <ele>1094.71</ele>
        <time>2012-12-12T13:46:11Z</time>
      </trkpt>
      <trkpt lat="45.6114" lon="6.11669">
        <ele>1097.91</ele>
        <time>2012-12-12T13:46:23Z</time>
      </trkpt>
      <trkpt lat="45.61141" lon="6.11682">
        <ele>1100.82</ele>
        <time>2012-12-12T13:46:33Z</time>
      </trkpt>
      <trkpt lat="45.61141" lon="6.11693">
        <ele>1103.03</ele>
        <time>2012-12-12T13:46:41Z</time>
      </trkpt>
      <trkpt lat="45.61141" lon="6.11713">
        <ele>1106.43</ele>
        <time>2012-12-12T13:46:54Z</time>
      </trkpt>
      <trkpt lat="45.61146" lon="6.11717">
        <ele>1108.51</ele>
        <time>2012-12-12T13:47:00Z</time>
      </trkpt>
      <trkpt lat="45.61157" lon="6.11716">
        <ele>1111.85</ele>
        <time>2012-12-12T13:47:12Z</time>
      </trkpt>
      <trkpt lat="45.6116" lon="6.11717">
        <ele>1112.83</ele>
        <time>2012-12-12T13:47:26Z</time>
      </trkpt>
      <trkpt lat="45.61168" lon="6.11717">
        <ele>1115.13</ele>
        <time>2012-12-12T13:47:44Z</time>
      </trkpt>
      <trkpt lat="45.61172" lon="6.11721">
        <ele>1116.12</ele>
        <time>2012-12-12T13:48:02Z</time>
      </trkpt>
      <trkpt lat="45.61175" lon="6.11724">
        <ele>1116.89</ele>
        <time>2012-12-12T13:48:05Z</time>
      </trkpt>
      <trkpt lat="45.6119" lon="6.11725">
        <ele>1120.31</ele>
        <time>2012-12-12T13:48:17Z</time>
      </trkpt>
      <trkpt lat="45.6119" lon="6.11727">
        <ele>1120.9</ele>
        <time>2012-12-12T13:48:19Z</time>
      </trkpt>
      <trkpt lat="45.6119" lon="6.11736">
        <ele>1121.9</ele>
        <time>2012-12-12T13:48:24Z</time>
      </trkpt>
      <trkpt lat="45.61188" lon="6.11742">
        <ele>1123.02</ele>
        <time>2012-12-12T13:48:28Z</time>
      </trkpt>
      <trkpt lat="45.61182" lon="6.11754">
        <ele>1126.48</ele>
        <time>2012-12-12T13:48:40Z</time>
      </trkpt>
      <trkpt lat="45.61179" lon="6.11765">
        <ele>1128.88</ele>
        <time>2012-12-12T13:48:49Z</time>
      </trkpt>
      <trkpt lat="45.61177" lon="6.11781">
        <ele>1132.23</ele>
        <time>2012-12-12T13:49:01Z</time>
      </trkpt>
      <trkpt lat="45.61176" lon="6.11794">
        <ele>1135.44</ele>
        <time>2012-12-12T13:49:12Z</time>
      </trkpt>
      <trkpt lat="45.61173" lon="6.11808">
        <ele>1138.45</ele>
        <time>2012-12-12T13:49:24Z</time>
      </trkpt>
      <trkpt lat="45.61173" lon="6.11822">
        <ele>1141.55</ele>
        <time>2012-12-12T13:49:35Z</time>
      </trkpt>
      <trkpt lat="45.61171" lon="6.11836">
        <ele>1144.42</ele>
        <time>2012-12-12T13:49:47Z</time>
      </trkpt>
      <trkpt lat="45.61171" lon="6.11846">
        <ele>1147.62</ele>
        <time>2012-12-12T13:50:00Z</time>
      </trkpt>
      <trkpt lat="45.6118" lon="6.1184">
        <ele>1150.78</ele>
        <time>2012-12-12T13:50:13Z</time>
      </trkpt>
      <trkpt lat="45.61185" lon="6.11837">
        <ele>1151.82</ele>
        <time>2012-12-12T13:50:18Z</time>
      </trkpt>
      <trkpt lat="45.61196" lon="6.11836">
        <ele>1155.22</ele>
        <time>2012-12-12T13:50:31Z</time>
      </trkpt>
      <trkpt lat="45.61199" lon="6.11838">
        <ele>1155.98</ele>
        <time>2012-12-12T13:50:34Z</time>
      </trkpt>
      <trkpt lat="45.61212" lon="6.11846">
        <ele>1159.25</ele>
        <time>2012-12-12T13:50:48Z</time>
      </trkpt>
      <trkpt lat="45.61207" lon="6.11861">
        <ele>1162.31</ele>
        <time>2012-12-12T13:51:01Z</time>
      </trkpt>
      <trkpt lat="45.61211" lon="6.11866">
        <ele>1165.52</ele>
        <time>2012-12-12T13:51:13Z</time>
      </trkpt>
      <trkpt lat="45.61221" lon="6.11869">
        <ele>1168.44</ele>
        <time>2012-12-12T13:51:25Z</time>
      </trkpt>
      <trkpt lat="45.61218" lon="6.1188">
        <ele>1170.38</ele>
        <time>2012-12-12T13:51:33Z</time>
      </trkpt>
      <trkpt lat="45.61206" lon="6.11897">
        <ele>1173.69</ele>
        <time>2012-12-12T13:51:50Z</time>
      </trkpt>
      <trkpt lat="45.61201" lon="6.11908">
        <ele>1175.67</ele>
        <time>2012-12-12T13:52:05Z</time>
      </trkpt>
      <trkpt lat="45.6121" lon="6.1191">
        <ele>1178.74</ele>
        <time>2012-12-12T13:52:15Z</time>
      </trkpt>
      <trkpt lat="45.61213" lon="6.11911">
        <ele>1179.96</ele>
        <time>2012-12-12T13:52:19Z</time>
      </trkpt>
      <trkpt lat="45.61225" lon="6.11916">
        <ele>1182.69</ele>
        <time>2012-12-12T13:52:31Z</time>
      </trkpt>
      <trkpt lat="45.61226" lon="6.11918">
        <ele>1183.25</ele>
        <time>2012-12-12T13:52:33Z</time>
      </trkpt>
      <trkpt lat="45.61225" lon="6.11929">
        <ele>1185.73</ele>
        <time>2012-12-12T13:52:43Z</time>
      </trkpt>
      <trkpt lat="45.61224" lon="6.11932">
        <ele>1186.49</ele>
        <time>2012-12-12T13:52:46Z</time>
      </trkpt>
      <trkpt lat="45.61225" lon="6.11943">
        <ele>1189.77</ele>
        <time>2012-12-12T13:52:59Z</time>
      </trkpt>
      <trkpt lat="45.61229" lon="6.11942">
        <ele>1190.43</ele>
        <time>2012-12-12T13:53:02Z</time>
      </trkpt>
      <trkpt lat="45.61242" lon="6.11942">
        <ele>1193.92</ele>
        <time>2012-12-12T13:53:16Z</time>
      </trkpt>
      <trkpt lat="45.61241" lon="6.11946">
        <ele>1194.73</ele>
        <time>2012-12-12T13:53:19Z</time>
      </trkpt>
      <trkpt lat="45.61237" lon="6.11967">
        <ele>1198.06</ele>
        <time>2012-12-12T13:53:35Z</time>
      </trkpt>
      <trkpt lat="45.6124" lon="6.11972">
        <ele>1200.02</ele>
        <time>2012-12-12T13:53:43Z</time>
      </trkpt>
      <trkpt lat="45.61252" lon="6.11972">
        <ele>1203.32</ele>
        <time>2012-12-12T13:53:57Z</time>
      </trkpt>
      <trkpt lat="45.61252" lon="6.11975">
        <ele>1203.83</ele>
        <time>2012-12-12T13:54:00Z</time>
      </trkpt>
      <trkpt lat="45.61248" lon="6.11993">
        <ele>1207.15</ele>
        <time>2012-12-12T13:54:14Z</time>
      </trkpt>
      <trkpt lat="45.61251" lon="6.11998">
        <ele>1209.24</ele>
        <time>2012-12-12T13:54:21Z</time>
      </trkpt>
      <trkpt lat="45.61259" lon="6.11997">
        <ele>1211.34</ele>
        <time>2012-12-12T13:54:30Z</time>
      </trkpt>
      <trkpt lat="45.61262" lon="6.11996">
        <ele>1211.99</ele>
        <time>2012-12-12T13:54:33Z</time>
      </trkpt>
      <trkpt lat="45.61273" lon="6.12006">
        <ele>1215.34</ele>
        <time>2012-12-12T13:54:46Z</time>
      </trkpt>
      <trkpt lat="45.61275" lon="6.12008">
        <ele>1215.96</ele>
        <time>2012-12-12T13:54:49Z</time>
      </trkpt>
      <trkpt lat="45.6128" lon="6.12012">
        <ele>1217.42</ele>
        <time>2012-12-12T13:54:55Z</time>
      </trkpt>
      <trkpt lat="45.6129" lon="6.12019">
        <ele>1220.5</ele>
        <time>2012-12-12T13:55:06Z</time>
      </trkpt>
      <trkpt lat="45.61301" lon="6.12029">
        <ele>1223.58</ele>
        <time>2012-12-12T13:55:19Z</time>
      </trkpt>
      <trkpt lat="45.61303" lon="6.1203">
        <ele>1224.27</ele>
        <time>2012-12-12T13:55:41Z</time>
      </trkpt>
      <trkpt lat="45.61315" lon="6.1204">
        <ele>1225.37</ele>
        <time>2012-12-12T13:55:55Z</time>
      </trkpt>
      <trkpt lat="45.61316" lon="6.12039">
        <ele>1225.34</ele>
        <time>2012-12-12T13:56:13Z</time>
      </trkpt>
      <trkpt lat="45.61318" lon="6.12039">
        <ele>1225.56</ele>
        <time>2012-12-12T13:56:39Z</time>
      </trkpt>
      <trkpt lat="45.61319" lon="6.1204">
        <ele>1225.45</ele>
        <time>2012-12-12T13:57:01Z</time>
      </trkpt>
      <trkpt lat="45.61318" lon="6.12041">
        <ele>1225.3</ele>
        <time>2012-12-12T13:57:28Z</time>
      </trkpt>
      <trkpt lat="45.61318" lon="6.12041">
        <ele>1225.25</ele>
        <time>2012-12-12T13:57:58Z</time>
      </trkpt>
      <trkpt lat="45.61318" lon="6.12041">
        <ele>1225.74</ele>
        <time>2012-12-12T13:59:09Z</time>
      </trkpt>
      <trkpt lat="45.61326" lon="6.12053">
        <ele>1228.87</ele>
        <time>2012-12-12T13:59:22Z</time>
      </trkpt>
      <trkpt lat="45.61334" lon="6.12066">
        <ele>1231.7</ele>
        <time>2012-12-12T13:59:33Z</time>
      </trkpt>
      <trkpt lat="45.61339" lon="6.12078">
        <ele>1234.92</ele>
        <time>2012-12-12T13:59:44Z</time>
      </trkpt>
      <trkpt lat="45.61339" lon="6.12081">
        <ele>1236.32</ele>
        <time>2012-12-12T13:59:58Z</time>
      </trkpt>
      <trkpt lat="45.61343" lon="6.12091">
        <ele>1237.78</ele>
        <time>2012-12-12T14:00:16Z</time>
      </trkpt>
      <trkpt lat="45.61345" lon="6.12094">
        <ele>1238.57</ele>
        <time>2012-12-12T14:00:19Z</time>
      </trkpt>
      <trkpt lat="45.6135" lon="6.12107">
        <ele>1240.24</ele>
        <time>2012-12-12T14:00:33Z</time>
      </trkpt>
      <trkpt lat="45.61351" lon="6.12107">
        <ele>1240.47</ele>
        <time>2012-12-12T14:01:00Z</time>
      </trkpt>
      <trkpt lat="45.61352" lon="6.12108">
        <ele>1240.24</ele>
        <time>2012-12-12T14:01:21Z</time>
      </trkpt>
      <trkpt lat="45.61351" lon="6.12106">
        <ele>1239.97</ele>
        <time>2012-12-12T14:01:41Z</time>
      </trkpt>
      <trkpt lat="45.61351" lon="6.12105">
        <ele>1240.06</ele>
        <time>2012-12-12T14:02:12Z</time>
      </trkpt>
      <trkpt lat="45.61351" lon="6.12105">
        <ele>1239.84</ele>
        <time>2012-12-12T14:02:41Z</time>
      </trkpt>
      <trkpt lat="45.61351" lon="6.12105">
        <ele>1240.72</ele>
        <time>2012-12-12T14:03:09Z</time>
      </trkpt>
      <trkpt lat="45.61358" lon="6.12124">
        <ele>1243.03</ele>
        <time>2012-12-12T14:03:28Z</time>
      </trkpt>
      <trkpt lat="45.61362" lon="6.1213">
        <ele>1242.9</ele>
        <time>2012-12-12T14:03:32Z</time>
      </trkpt>
      <trkpt lat="45.61362" lon="6.12134">
        <ele>1243.26</ele>
        <time>2012-12-12T14:03:35Z</time>
      </trkpt>
      <trkpt lat="45.6135" lon="6.12132">
        <ele>1244.39</ele>
        <time>2012-12-12T14:03:44Z</time>
      </trkpt>
      <trkpt lat="45.61345" lon="6.12132">
        <ele>1245.41</ele>
        <time>2012-12-12T14:03:48Z</time>
      </trkpt>
      <trkpt lat="45.61334" lon="6.12135">
        <ele>1246.77</ele>
        <time>2012-12-12T14:03:55Z</time>
      </trkpt>
      <trkpt lat="45.61327" lon="6.12149">
        <ele>1248.38</ele>
        <time>2012-12-12T14:04:04Z</time>
      </trkpt>
      <trkpt lat="45.61321" lon="6.12151">
        <ele>1250.12</ele>
        <time>2012-12-12T14:04:11Z</time>
      </trkpt>
      <trkpt lat="45.61308" lon="6.12148">
        <ele>1252.78</ele>
        <time>2012-12-12T14:04:24Z</time>
      </trkpt>
      <trkpt lat="45.61294" lon="6.12143">
        <ele>1254.88</ele>
        <time>2012-12-12T14:04:35Z</time>
      </trkpt>
      <trkpt lat="45.61288" lon="6.12133">
        <ele>1256.28</ele>
        <time>2012-12-12T14:04:44Z</time>
      </trkpt>
      <trkpt lat="45.61282" lon="6.12134">
        <ele>1257.25</ele>
        <time>2012-12-12T14:04:49Z</time>
      </trkpt>
      <trkpt lat="45.61279" lon="6.12138">
        <ele>1257.74</ele>
        <time>2012-12-12T14:04:53Z</time>
      </trkpt>
      <trkpt lat="45.61276" lon="6.12141">
        <ele>1258.63</ele>
        <time>2012-12-12T14:04:57Z</time>
      </trkpt>
      <trkpt lat="45.61273" lon="6.12144">
        <ele>1259.71</ele>
        <time>2012-12-12T14:05:01Z</time>
      </trkpt>
      <trkpt lat="45.61269" lon="6.12151">
        <ele>1260.88</ele>
        <time>2012-12-12T14:05:07Z</time>
      </trkpt>
      <trkpt lat="45.61263" lon="6.12161">
        <ele>1264.28</ele>
        <time>2012-12-12T14:05:20Z</time>
      </trkpt>
      <trkpt lat="45.6126" lon="6.12162">
        <ele>1264.92</ele>
        <time>2012-12-12T14:05:24Z</time>
      </trkpt>
      <trkpt lat="45.6125" lon="6.12167">
        <ele>1265.35</ele>
        <time>2012-12-12T14:05:35Z</time>
      </trkpt>
      <trkpt lat="45.61241" lon="6.12176">
        <ele>1267.01</ele>
        <time>2012-12-12T14:05:45Z</time>
      </trkpt>
      <trkpt lat="45.61244" lon="6.12178">
        <ele>1270.16</ele>
        <time>2012-12-12T14:06:00Z</time>
      </trkpt>
      <trkpt lat="45.61254" lon="6.12179">
        <ele>1273.21</ele>
        <time>2012-12-12T14:06:13Z</time>
      </trkpt>
      <trkpt lat="45.6125" lon="6.12191">
        <ele>1276.07</ele>
        <time>2012-12-12T14:06:30Z</time>
      </trkpt>
      <trkpt lat="45.61231" lon="6.12192">
        <ele>1278.12</ele>
        <time>2012-12-12T14:06:50Z</time>
      </trkpt>
      <trkpt lat="45.61216" lon="6.12187">
        <ele>1279.72</ele>
        <time>2012-12-12T14:07:10Z</time>
      </trkpt>
      <trkpt lat="45.61212" lon="6.12188">
        <ele>1281.6</ele>
        <time>2012-12-12T14:07:30Z</time>
      </trkpt>
      <trkpt lat="45.61205" lon="6.12185">
        <ele>1283.52</ele>
        <time>2012-12-12T14:07:51Z</time>
      </trkpt>
      <trkpt lat="45.61199" lon="6.12188">
        <ele>1284.96</ele>
        <time>2012-12-12T14:08:09Z</time>
      </trkpt>
      <trkpt lat="45.6119" lon="6.12189">
        <ele>1285.57</ele>
        <time>2012-12-12T14:08:29Z</time>
      </trkpt>
      <trkpt lat="45.61189" lon="6.1219">
        <ele>1286.29</ele>
        <time>2012-12-12T14:08:52Z</time>
      </trkpt>
      <trkpt lat="45.61188" lon="6.1219">
        <ele>1286.06</ele>
        <time>2012-12-12T14:09:11Z</time>
      </trkpt>
      <trkpt lat="45.61186" lon="6.1219">
        <ele>1285.99</ele>
        <time>2012-12-12T14:09:40Z</time>
      </trkpt>
      <trkpt lat="45.61186" lon="6.12187">
        <ele>1286.21</ele>
        <time>2012-12-12T14:10:06Z</time>
      </trkpt>
      <trkpt lat="45.61185" lon="6.12184">
        <ele>1285.62</ele>
        <time>2012-12-12T14:10:30Z</time>
      </trkpt>
      <trkpt lat="45.61189" lon="6.12185">
        <ele>1285.61</ele>
        <time>2012-12-12T14:10:50Z</time>
      </trkpt>
      <trkpt lat="45.612" lon="6.12182">
        <ele>1284.5</ele>
        <time>2012-12-12T14:11:09Z</time>
      </trkpt>
      <trkpt lat="45.61203" lon="6.12181">
        <ele>1283.6</ele>
        <time>2012-12-12T14:11:30Z</time>
      </trkpt>
      <trkpt lat="45.61212" lon="6.1218">
        <ele>1280.53</ele>
        <time>2012-12-12T14:11:44Z</time>
      </trkpt>
      <trkpt lat="45.61219" lon="6.12182">
        <ele>1279.1</ele>
        <time>2012-12-12T14:11:54Z</time>
      </trkpt>
      <trkpt lat="45.61237" lon="6.12185">
        <ele>1278.23</ele>
        <time>2012-12-12T14:12:07Z</time>
      </trkpt>
      <trkpt lat="45.61247" lon="6.12184">
        <ele>1278.94</ele>
        <time>2012-12-12T14:12:28Z</time>
      </trkpt>
      <trkpt lat="45.61257" lon="6.12192">
        <ele>1282.18</ele>
        <time>2012-12-12T14:12:44Z</time>
      </trkpt>
      <trkpt lat="45.6127" lon="6.12201">
        <ele>1285.36</ele>
        <time>2012-12-12T14:12:59Z</time>
      </trkpt>
      <trkpt lat="45.61271" lon="6.12207">
        <ele>1288.55</ele>
        <time>2012-12-12T14:13:14Z</time>
      </trkpt>
      <trkpt lat="45.61275" lon="6.12216">
        <ele>1291.47</ele>
        <time>2012-12-12T14:13:33Z</time>
      </trkpt>
      <trkpt lat="45.61289" lon="6.1222">
        <ele>1292.37</ele>
        <time>2012-12-12T14:13:42Z</time>
      </trkpt>
      <trkpt lat="45.61313" lon="6.12226">
        <ele>1292.6</ele>
        <time>2012-12-12T14:14:03Z</time>
      </trkpt>
      <trkpt lat="45.61321" lon="6.12234">
        <ele>1295.76</ele>
        <time>2012-12-12T14:14:14Z</time>
      </trkpt>
      <trkpt lat="45.61346" lon="6.12241">
        <ele>1294.39</ele>
        <time>2012-12-12T14:14:33Z</time>
      </trkpt>
      <trkpt lat="45.61356" lon="6.12243">
        <ele>1294.74</ele>
        <time>2012-12-12T14:14:45Z</time>
      </trkpt>
      <trkpt lat="45.61358" lon="6.12245">
        <ele>1294.66</ele>
        <time>2012-12-12T14:14:53Z</time>
      </trkpt>
      <trkpt lat="45.61372" lon="6.12259">
        <ele>1297.73</ele>
        <time>2012-12-12T14:15:09Z</time>
      </trkpt>
      <trkpt lat="45.61379" lon="6.12265">
        <ele>1298.88</ele>
        <time>2012-12-12T14:15:17Z</time>
      </trkpt>
      <trkpt lat="45.61387" lon="6.1227">
        <ele>1299.8</ele>
        <time>2012-12-12T14:15:28Z</time>
      </trkpt>
      <trkpt lat="45.61385" lon="6.1228">
        <ele>1303.39</ele>
        <time>2012-12-12T14:15:40Z</time>
      </trkpt>
      <trkpt lat="45.61396" lon="6.12287">
        <ele>1306.53</ele>
        <time>2012-12-12T14:15:53Z</time>
      </trkpt>
      <trkpt lat="45.61406" lon="6.12292">
        <ele>1309.66</ele>
        <time>2012-12-12T14:16:04Z</time>
      </trkpt>
      <trkpt lat="45.61416" lon="6.12299">
        <ele>1312.61</ele>
        <time>2012-12-12T14:16:14Z</time>
      </trkpt>
      <trkpt lat="45.61425" lon="6.12308">
        <ele>1315.71</ele>
        <time>2012-12-12T14:16:27Z</time>
      </trkpt>
      <trkpt lat="45.61435" lon="6.12319">
        <ele>1318.92</ele>
        <time>2012-12-12T14:16:38Z</time>
      </trkpt>
      <trkpt lat="45.61441" lon="6.12328">
        <ele>1321.88</ele>
        <time>2012-12-12T14:16:49Z</time>
      </trkpt>
      <trkpt lat="45.61445" lon="6.12338">
        <ele>1324.68</ele>
        <time>2012-12-12T14:17:00Z</time>
      </trkpt>
      <trkpt lat="45.61453" lon="6.12348">
        <ele>1327.8</ele>
        <time>2012-12-12T14:17:12Z</time>
      </trkpt>
      <trkpt lat="45.61462" lon="6.12357">
        <ele>1329.77</ele>
        <time>2012-12-12T14:17:34Z</time>
      </trkpt>
      <trkpt lat="45.61473" lon="6.12368">
        <ele>1332.8</ele>
        <time>2012-12-12T14:17:49Z</time>
      </trkpt>
      <trkpt lat="45.61474" lon="6.1237">
        <ele>1333.43</ele>
        <time>2012-12-12T14:17:51Z</time>
      </trkpt>
      <trkpt lat="45.61479" lon="6.12377">
        <ele>1336.05</ele>
        <time>2012-12-12T14:18:01Z</time>
      </trkpt>
      <trkpt lat="45.61486" lon="6.12383">
        <ele>1339.09</ele>
        <time>2012-12-12T14:18:11Z</time>
      </trkpt>
      <trkpt lat="45.61492" lon="6.12392">
        <ele>1342.18</ele>
        <time>2012-12-12T14:18:22Z</time>
      </trkpt>
      <trkpt lat="45.61495" lon="6.12399">
        <ele>1345.4</ele>
        <time>2012-12-12T14:18:33Z</time>
      </trkpt>
      <trkpt lat="45.61499" lon="6.12407">
        <ele>1348.67</ele>
        <time>2012-12-12T14:18:45Z</time>
      </trkpt>
      <trkpt lat="45.61506" lon="6.12415">
        <ele>1351.67</ele>
        <time>2012-12-12T14:19:06Z</time>
      </trkpt>
      <trkpt lat="45.61515" lon="6.12425">
        <ele>1354.68</ele>
        <time>2012-12-12T14:19:16Z</time>
      </trkpt>
      <trkpt lat="45.6152" lon="6.12429">
        <ele>1357.69</ele>
        <time>2012-12-12T14:19:26Z</time>
      </trkpt>
      <trkpt lat="45.61524" lon="6.12436">
        <ele>1361.01</ele>
        <time>2012-12-12T14:19:38Z</time>
      </trkpt>
      <trkpt lat="45.61529" lon="6.1244">
        <ele>1364.09</ele>
        <time>2012-12-12T14:19:54Z</time>
      </trkpt>
      <trkpt lat="45.61533" lon="6.12449">
        <ele>1367.39</ele>
        <time>2012-12-12T14:20:13Z</time>
      </trkpt>
      <trkpt lat="45.61538" lon="6.12463">
        <ele>1370.69</ele>
        <time>2012-12-12T14:20:27Z</time>
      </trkpt>
      <trkpt lat="45.61545" lon="6.12473">
        <ele>1374.04</ele>
        <time>2012-12-12T14:20:38Z</time>
      </trkpt>
      <trkpt lat="45.6155" lon="6.12479">
        <ele>1375.9</ele>
        <time>2012-12-12T14:20:45Z</time>
      </trkpt>
      <trkpt lat="45.61553" lon="6.12491">
        <ele>1377.02</ele>
        <time>2012-12-12T14:20:52Z</time>
      </trkpt>
      <trkpt lat="45.6155" lon="6.12499">
        <ele>1377.85</ele>
        <time>2012-12-12T14:20:58Z</time>
      </trkpt>
      <trkpt lat="45.61549" lon="6.12503">
        <ele>1378.02</ele>
        <time>2012-12-12T14:21:01Z</time>
      </trkpt>
      <trkpt lat="45.61547" lon="6.12505">
        <ele>1378.49</ele>
        <time>2012-12-12T14:21:04Z</time>
      </trkpt>
      <trkpt lat="45.61538" lon="6.12519">
        <ele>1379.87</ele>
        <time>2012-12-12T14:21:15Z</time>
      </trkpt>
      <trkpt lat="45.61531" lon="6.1254">
        <ele>1381.07</ele>
        <time>2012-12-12T14:21:26Z</time>
      </trkpt>
      <trkpt lat="45.61531" lon="6.12542">
        <ele>1381.16</ele>
        <time>2012-12-12T14:21:27Z</time>
      </trkpt>
      <trkpt lat="45.61524" lon="6.12557">
        <ele>1382.73</ele>
        <time>2012-12-12T14:21:37Z</time>
      </trkpt>
      <trkpt lat="45.6152" lon="6.12555">
        <ele>1383.45</ele>
        <time>2012-12-12T14:21:54Z</time>
      </trkpt>
      <trkpt lat="45.6152" lon="6.12553">
        <ele>1383.54</ele>
        <time>2012-12-12T14:22:07Z</time>
      </trkpt>
      <trkpt lat="45.61518" lon="6.12555">
        <ele>1382.54</ele>
        <time>2012-12-12T14:25:36Z</time>
      </trkpt>
      <trkpt lat="45.61513" lon="6.12555">
        <ele>1383.15</ele>
        <time>2012-12-12T14:26:00Z</time>
      </trkpt>
      <trkpt lat="45.61501" lon="6.12556">
        <ele>1386.2</ele>
        <time>2012-12-12T14:26:09Z</time>
      </trkpt>
      <trkpt lat="45.61486" lon="6.12556">
        <ele>1389.41</ele>
        <time>2012-12-12T14:26:20Z</time>
      </trkpt>
      <trkpt lat="45.61474" lon="6.12553">
        <ele>1391.94</ele>
        <time>2012-12-12T14:26:29Z</time>
      </trkpt>
      <trkpt lat="45.61462" lon="6.1254">
        <ele>1395.53</ele>
        <time>2012-12-12T14:26:42Z</time>
      </trkpt>
      <trkpt lat="45.61449" lon="6.1254">
        <ele>1396.07</ele>
        <time>2012-12-12T14:26:54Z</time>
      </trkpt>
      <trkpt lat="45.61446" lon="6.12539">
        <ele>1395.75</ele>
        <time>2012-12-12T14:27:04Z</time>
      </trkpt>
      <trkpt lat="45.61429" lon="6.12529">
        <ele>1394.54</ele>
        <time>2012-12-12T14:27:13Z</time>
      </trkpt>
      <trkpt lat="45.61409" lon="6.12511">
        <ele>1392.53</ele>
        <time>2012-12-12T14:27:23Z</time>
      </trkpt>
      <trkpt lat="45.61388" lon="6.12499">
        <ele>1391.43</ele>
        <time>2012-12-12T14:27:34Z</time>
      </trkpt>
      <trkpt lat="45.61365" lon="6.12482">
        <ele>1391.52</ele>
        <time>2012-12-12T14:27:49Z</time>
      </trkpt>
      <trkpt lat="45.61363" lon="6.12481">
        <ele>1391.48</ele>
        <time>2012-12-12T14:27:50Z</time>
      </trkpt>
      <trkpt lat="45.61342" lon="6.12475">
        <ele>1391.36</ele>
        <time>2012-12-12T14:28:03Z</time>
      </trkpt>
      <trkpt lat="45.61319" lon="6.12466">
        <ele>1389.21</ele>
        <time>2012-12-12T14:28:12Z</time>
      </trkpt>
      <trkpt lat="45.613" lon="6.12457">
        <ele>1387.69</ele>
        <time>2012-12-12T14:28:22Z</time>
      </trkpt>
      <trkpt lat="45.6128" lon="6.12446">
        <ele>1385.63</ele>
        <time>2012-12-12T14:28:32Z</time>
      </trkpt>
      <trkpt lat="45.61256" lon="6.12435">
        <ele>1383.63</ele>
        <time>2012-12-12T14:28:43Z</time>
      </trkpt>
      <trkpt lat="45.61235" lon="6.12426">
        <ele>1381.63</ele>
        <time>2012-12-12T14:28:52Z</time>
      </trkpt>
      <trkpt lat="45.61214" lon="6.12419">
        <ele>1380.4</ele>
        <time>2012-12-12T14:29:03Z</time>
      </trkpt>
      <trkpt lat="45.61194" lon="6.1241">
        <ele>1380.88</ele>
        <time>2012-12-12T14:29:16Z</time>
      </trkpt>
      <trkpt lat="45.61176" lon="6.124">
        <ele>1381.24</ele>
        <time>2012-12-12T14:29:27Z</time>
      </trkpt>
      <trkpt lat="45.61173" lon="6.12398">
        <ele>1381.18</ele>
        <time>2012-12-12T14:29:29Z</time>
      </trkpt>
      <trkpt lat="45.61166" lon="6.12395">
        <ele>1381.74</ele>
        <time>2012-12-12T14:29:34Z</time>
      </trkpt>
      <trkpt lat="45.6115" lon="6.12388">
        <ele>1383.44</ele>
        <time>2012-12-12T14:29:47Z</time>
      </trkpt>
      <trkpt lat="45.6115" lon="6.12388">
        <ele>1383.46</ele>
        <time>2012-12-12T14:30:14Z</time>
      </trkpt>
      <trkpt lat="45.61134" lon="6.12382">
        <ele>1384.24</ele>
        <time>2012-12-12T14:30:25Z</time>
      </trkpt>
      <trkpt lat="45.61114" lon="6.12377">
        <ele>1384.31</ele>
        <time>2012-12-12T14:30:36Z</time>
      </trkpt>
      <trkpt lat="45.61089" lon="6.12375">
        <ele>1382.19</ele>
        <time>2012-12-12T14:30:49Z</time>
      </trkpt>
      <trkpt lat="45.61067" lon="6.12372">
        <ele>1379.13</ele>
        <time>2012-12-12T14:30:59Z</time>
      </trkpt>
      <trkpt lat="45.6104" lon="6.1237">
        <ele>1377.42</ele>
        <time>2012-12-12T14:31:12Z</time>
      </trkpt>
      <trkpt lat="45.61035" lon="6.12369">
        <ele>1377.1</ele>
        <time>2012-12-12T14:31:27Z</time>
      </trkpt>
      <trkpt lat="45.61009" lon="6.12374">
        <ele>1376.41</ele>
        <time>2012-12-12T14:31:41Z</time>
      </trkpt>
      <trkpt lat="45.60988" lon="6.12362">
        <ele>1373.83</ele>
        <time>2012-12-12T14:31:50Z</time>
      </trkpt>
      <trkpt lat="45.60978" lon="6.12354">
        <ele>1372.21</ele>
        <time>2012-12-12T14:31:56Z</time>
      </trkpt>
      <trkpt lat="45.60976" lon="6.1234">
        <ele>1371.96</ele>
        <time>2012-12-12T14:32:05Z</time>
      </trkpt>
      <trkpt lat="45.60972" lon="6.12339">
        <ele>1371.41</ele>
        <time>2012-12-12T14:32:08Z</time>
      </trkpt>
      <trkpt lat="45.60955" lon="6.12336">
        <ele>1369.94</ele>
        <time>2012-12-12T14:32:18Z</time>
      </trkpt>
      <trkpt lat="45.60945" lon="6.12332">
        <ele>1369.07</ele>
        <time>2012-12-12T14:32:23Z</time>
      </trkpt>
      <trkpt lat="45.60928" lon="6.12324">
        <ele>1369.45</ele>
        <time>2012-12-12T14:32:33Z</time>
      </trkpt>
      <trkpt lat="45.60923" lon="6.1232">
        <ele>1368.94</ele>
        <time>2012-12-12T14:32:36Z</time>
      </trkpt>
      <trkpt lat="45.60912" lon="6.12315">
        <ele>1367.1</ele>
        <time>2012-12-12T14:32:41Z</time>
      </trkpt>
      <trkpt lat="45.60885" lon="6.12304">
        <ele>1363.87</ele>
        <time>2012-12-12T14:32:52Z</time>
      </trkpt>
      <trkpt lat="45.60882" lon="6.123">
        <ele>1363.12</ele>
        <time>2012-12-12T14:32:53Z</time>
      </trkpt>
      <trkpt lat="45.60872" lon="6.12283">
        <ele>1360.52</ele>
        <time>2012-12-12T14:32:59Z</time>
      </trkpt>
      <trkpt lat="45.60868" lon="6.12278">
        <ele>1361.2</ele>
        <time>2012-12-12T14:33:02Z</time>
      </trkpt>
      <trkpt lat="45.60866" lon="6.12277">
        <ele>1361.2</ele>
        <time>2012-12-12T14:33:03Z</time>
      </trkpt>
      <trkpt lat="45.60857" lon="6.12274">
        <ele>1362.43</ele>
        <time>2012-12-12T14:33:10Z</time>
      </trkpt>
      <trkpt lat="45.60853" lon="6.12271">
        <ele>1362.76</ele>
        <time>2012-12-12T14:33:13Z</time>
      </trkpt>
      <trkpt lat="45.60836" lon="6.12265">
        <ele>1363.72</ele>
        <time>2012-12-12T14:33:25Z</time>
      </trkpt>
      <trkpt lat="45.60818" lon="6.12253">
        <ele>1360.97</ele>
        <time>2012-12-12T14:33:34Z</time>
      </trkpt>
      <trkpt lat="45.60814" lon="6.12247">
        <ele>1359.18</ele>
        <time>2012-12-12T14:33:43Z</time>
      </trkpt>
      <trkpt lat="45.60803" lon="6.12236">
        <ele>1357.6</ele>
        <time>2012-12-12T14:33:50Z</time>
      </trkpt>
      <trkpt lat="45.60787" lon="6.12207">
        <ele>1354.21</ele>
        <time>2012-12-12T14:34:02Z</time>
      </trkpt>
      <trkpt lat="45.60778" lon="6.12198">
        <ele>1351.18</ele>
        <time>2012-12-12T14:34:07Z</time>
      </trkpt>
      <trkpt lat="45.60776" lon="6.12197">
        <ele>1350.52</ele>
        <time>2012-12-12T14:34:09Z</time>
      </trkpt>
      <trkpt lat="45.60767" lon="6.12193">
        <ele>1349.25</ele>
        <time>2012-12-12T14:34:18Z</time>
      </trkpt>
      <trkpt lat="45.60746" lon="6.12176">
        <ele>1346.74</ele>
        <time>2012-12-12T14:34:29Z</time>
      </trkpt>
      <trkpt lat="45.60743" lon="6.12175">
        <ele>1346.08</ele>
        <time>2012-12-12T14:34:30Z</time>
      </trkpt>
      <trkpt lat="45.60723" lon="6.12161">
        <ele>1343.86</ele>
        <time>2012-12-12T14:34:42Z</time>
      </trkpt>
      <trkpt lat="45.60716" lon="6.12157">
        <ele>1343.8</ele>
        <time>2012-12-12T14:34:46Z</time>
      </trkpt>
      <trkpt lat="45.60715" lon="6.12145">
        <ele>1344.17</ele>
        <time>2012-12-12T14:34:53Z</time>
      </trkpt>
      <trkpt lat="45.60707" lon="6.12143">
        <ele>1343.51</ele>
        <time>2012-12-12T14:35:00Z</time>
      </trkpt>
      <trkpt lat="45.60705" lon="6.12145">
        <ele>1344.29</ele>
        <time>2012-12-12T14:35:02Z</time>
      </trkpt>
      <trkpt lat="45.60704" lon="6.12147">
        <ele>1345.13</ele>
        <time>2012-12-12T14:35:13Z</time>
      </trkpt>
      <trkpt lat="45.60691" lon="6.12138">
        <ele>1346.35</ele>
        <time>2012-12-12T14:35:23Z</time>
      </trkpt>
      <trkpt lat="45.60685" lon="6.12134">
        <ele>1346.31</ele>
        <time>2012-12-12T14:35:27Z</time>
      </trkpt>
      <trkpt lat="45.60682" lon="6.12137">
        <ele>1346.88</ele>
        <time>2012-12-12T14:35:31Z</time>
      </trkpt>
      <trkpt lat="45.60669" lon="6.12135">
        <ele>1348.01</ele>
        <time>2012-12-12T14:35:42Z</time>
      </trkpt>
      <trkpt lat="45.60664" lon="6.12131">
        <ele>1348.93</ele>
        <time>2012-12-12T14:35:46Z</time>
      </trkpt>
      <trkpt lat="45.60644" lon="6.12119">
        <ele>1350.24</ele>
        <time>2012-12-12T14:35:59Z</time>
      </trkpt>
      <trkpt lat="45.60626" lon="6.12108">
        <ele>1350.63</ele>
        <time>2012-12-12T14:36:11Z</time>
      </trkpt>
      <trkpt lat="45.60609" lon="6.12097">
        <ele>1351.97</ele>
        <time>2012-12-12T14:36:23Z</time>
      </trkpt>
      <trkpt lat="45.6059" lon="6.12085">
        <ele>1351.48</ele>
        <time>2012-12-12T14:36:33Z</time>
      </trkpt>
      <trkpt lat="45.60574" lon="6.12076">
        <ele>1353.44</ele>
        <time>2012-12-12T14:36:45Z</time>
      </trkpt>
      <trkpt lat="45.60552" lon="6.12076">
        <ele>1355.97</ele>
        <time>2012-12-12T14:37:00Z</time>
      </trkpt>
      <trkpt lat="45.60535" lon="6.12066">
        <ele>1357.07</ele>
        <time>2012-12-12T14:37:11Z</time>
      </trkpt>
      <trkpt lat="45.60511" lon="6.12062">
        <ele>1357.86</ele>
        <time>2012-12-12T14:37:25Z</time>
      </trkpt>
      <trkpt lat="45.60497" lon="6.12055">
        <ele>1359.54</ele>
        <time>2012-12-12T14:37:35Z</time>
      </trkpt>
      <trkpt lat="45.60487" lon="6.12051">
        <ele>1359.99</ele>
        <time>2012-12-12T14:37:50Z</time>
      </trkpt>
      <trkpt lat="45.60484" lon="6.12047">
        <ele>1361.06</ele>
        <time>2012-12-12T14:38:07Z</time>
      </trkpt>
      <trkpt lat="45.60482" lon="6.12049">
        <ele>1360.8</ele>
        <time>2012-12-12T14:38:11Z</time>
      </trkpt>
      <trkpt lat="45.6048" lon="6.12051">
        <ele>1360.98</ele>
        <time>2012-12-12T14:38:14Z</time>
      </trkpt>
      <trkpt lat="45.60475" lon="6.1205">
        <ele>1360.9</ele>
        <time>2012-12-12T14:38:26Z</time>
      </trkpt>
      <trkpt lat="45.60475" lon="6.12051">
        <ele>1360.8</ele>
        <time>2012-12-12T14:38:51Z</time>
      </trkpt>
      <trkpt lat="45.60474" lon="6.12048">
        <ele>1361.02</ele>
        <time>2012-12-12T14:39:10Z</time>
      </trkpt>
      <trkpt lat="45.60466" lon="6.12042">
        <ele>1361.39</ele>
        <time>2012-12-12T14:39:15Z</time>
      </trkpt>
      <trkpt lat="45.60445" lon="6.12033">
        <ele>1361.37</ele>
        <time>2012-12-12T14:39:27Z</time>
      </trkpt>
      <trkpt lat="45.60423" lon="6.12023">
        <ele>1361.45</ele>
        <time>2012-12-12T14:39:40Z</time>
      </trkpt>
      <trkpt lat="45.60409" lon="6.12017">
        <ele>1362.66</ele>
        <time>2012-12-12T14:39:49Z</time>
      </trkpt>
      <trkpt lat="45.60392" lon="6.12008">
        <ele>1364.5</ele>
        <time>2012-12-12T14:40:01Z</time>
      </trkpt>
      <trkpt lat="45.60378" lon="6.11999">
        <ele>1367.24</ele>
        <time>2012-12-12T14:40:13Z</time>
      </trkpt>
      <trkpt lat="45.6036" lon="6.11991">
        <ele>1368.45</ele>
        <time>2012-12-12T14:40:25Z</time>
      </trkpt>
      <trkpt lat="45.60344" lon="6.11985">
        <ele>1370.5</ele>
        <time>2012-12-12T14:40:38Z</time>
      </trkpt>
      <trkpt lat="45.60329" lon="6.11977">
        <ele>1371.78</ele>
        <time>2012-12-12T14:40:49Z</time>
      </trkpt>
      <trkpt lat="45.60327" lon="6.11975">
        <ele>1372.26</ele>
        <time>2012-12-12T14:40:52Z</time>
      </trkpt>
      <trkpt lat="45.60315" lon="6.11965">
        <ele>1375.75</ele>
        <time>2012-12-12T14:41:05Z</time>
      </trkpt>
      <trkpt lat="45.60307" lon="6.11958">
        <ele>1378.21</ele>
        <time>2012-12-12T14:41:17Z</time>
      </trkpt>
      <trkpt lat="45.60297" lon="6.11947">
        <ele>1381.41</ele>
        <time>2012-12-12T14:41:29Z</time>
      </trkpt>
      <trkpt lat="45.60292" lon="6.11945">
        <ele>1382.42</ele>
        <time>2012-12-12T14:41:34Z</time>
      </trkpt>
      <trkpt lat="45.60288" lon="6.11939">
        <ele>1383</ele>
        <time>2012-12-12T14:41:39Z</time>
      </trkpt>
      <trkpt lat="45.60283" lon="6.11935">
        <ele>1384.12</ele>
        <time>2012-12-12T14:41:44Z</time>
      </trkpt>
      <trkpt lat="45.60265" lon="6.11926">
        <ele>1386.66</ele>
        <time>2012-12-12T14:41:59Z</time>
      </trkpt>
      <trkpt lat="45.60261" lon="6.11922">
        <ele>1386.78</ele>
        <time>2012-12-12T14:42:02Z</time>
      </trkpt>
      <trkpt lat="45.60247" lon="6.11906">
        <ele>1387.23</ele>
        <time>2012-12-12T14:42:15Z</time>
      </trkpt>
      <trkpt lat="45.60245" lon="6.11903">
        <ele>1387.79</ele>
        <time>2012-12-12T14:42:19Z</time>
      </trkpt>
      <trkpt lat="45.60241" lon="6.11902">
        <ele>1388.29</ele>
        <time>2012-12-12T14:42:22Z</time>
      </trkpt>
      <trkpt lat="45.6023" lon="6.11888">
        <ele>1391.5</ele>
        <time>2012-12-12T14:42:34Z</time>
      </trkpt>
      <trkpt lat="45.60223" lon="6.1188">
        <ele>1393.6</ele>
        <time>2012-12-12T14:42:43Z</time>
      </trkpt>
      <trkpt lat="45.6022" lon="6.11872">
        <ele>1395.04</ele>
        <time>2012-12-12T14:42:49Z</time>
      </trkpt>
      <trkpt lat="45.60216" lon="6.11866">
        <ele>1396.82</ele>
        <time>2012-12-12T14:42:55Z</time>
      </trkpt>
      <trkpt lat="45.60211" lon="6.11855">
        <ele>1399.23</ele>
        <time>2012-12-12T14:43:08Z</time>
      </trkpt>
      <trkpt lat="45.6021" lon="6.11852">
        <ele>1400</ele>
        <time>2012-12-12T14:43:11Z</time>
      </trkpt>
      <trkpt lat="45.60202" lon="6.11848">
        <ele>1403.65</ele>
        <time>2012-12-12T14:43:25Z</time>
      </trkpt>
      <trkpt lat="45.60195" lon="6.11847">
        <ele>1405.04</ele>
        <time>2012-12-12T14:43:33Z</time>
      </trkpt>
      <trkpt lat="45.60187" lon="6.11837">
        <ele>1407.94</ele>
        <time>2012-12-12T14:43:47Z</time>
      </trkpt>
      <trkpt lat="45.60179" lon="6.1183">
        <ele>1409.48</ele>
        <time>2012-12-12T14:43:55Z</time>
      </trkpt>
      <trkpt lat="45.60168" lon="6.11815">
        <ele>1411.94</ele>
        <time>2012-12-12T14:44:08Z</time>
      </trkpt>
      <trkpt lat="45.60162" lon="6.11808">
        <ele>1412.1</ele>
        <time>2012-12-12T14:44:14Z</time>
      </trkpt>
      <trkpt lat="45.60149" lon="6.118">
        <ele>1413.26</ele>
        <time>2012-12-12T14:44:26Z</time>
      </trkpt>
      <trkpt lat="45.60145" lon="6.11789">
        <ele>1414.26</ele>
        <time>2012-12-12T14:44:33Z</time>
      </trkpt>
      <trkpt lat="45.60137" lon="6.11775">
        <ele>1416.93</ele>
        <time>2012-12-12T14:44:44Z</time>
      </trkpt>
      <trkpt lat="45.60135" lon="6.11769">
        <ele>1418.06</ele>
        <time>2012-12-12T14:44:49Z</time>
      </trkpt>
      <trkpt lat="45.60129" lon="6.11756">
        <ele>1421.05</ele>
        <time>2012-12-12T14:45:03Z</time>
      </trkpt>
      <trkpt lat="45.60126" lon="6.11753">
        <ele>1422.25</ele>
        <time>2012-12-12T14:45:18Z</time>
      </trkpt>
      <trkpt lat="45.60124" lon="6.11757">
        <ele>1423.39</ele>
        <time>2012-12-12T14:45:29Z</time>
      </trkpt>
      <trkpt lat="45.60121" lon="6.1176">
        <ele>1424.31</ele>
        <time>2012-12-12T14:45:32Z</time>
      </trkpt>
      <trkpt lat="45.60117" lon="6.1176">
        <ele>1425.28</ele>
        <time>2012-12-12T14:45:36Z</time>
      </trkpt>
      <trkpt lat="45.6011" lon="6.11755">
        <ele>1427.54</ele>
        <time>2012-12-12T14:45:43Z</time>
      </trkpt>
      <trkpt lat="45.60109" lon="6.11751">
        <ele>1428.73</ele>
        <time>2012-12-12T14:45:46Z</time>
      </trkpt>
      <trkpt lat="45.60098" lon="6.11743">
        <ele>1431.95</ele>
        <time>2012-12-12T14:45:57Z</time>
      </trkpt>
      <trkpt lat="45.60092" lon="6.11738">
        <ele>1435.16</ele>
        <time>2012-12-12T14:46:07Z</time>
      </trkpt>
      <trkpt lat="45.60088" lon="6.11736">
        <ele>1436.52</ele>
        <time>2012-12-12T14:46:20Z</time>
      </trkpt>
      <trkpt lat="45.60081" lon="6.11731">
        <ele>1439.16</ele>
        <time>2012-12-12T14:46:27Z</time>
      </trkpt>
      <trkpt lat="45.60072" lon="6.11726">
        <ele>1442.23</ele>
        <time>2012-12-12T14:46:37Z</time>
      </trkpt>
      <trkpt lat="45.60063" lon="6.11726">
        <ele>1445.62</ele>
        <time>2012-12-12T14:46:50Z</time>
      </trkpt>
      <trkpt lat="45.60055" lon="6.11728">
        <ele>1448.83</ele>
        <time>2012-12-12T14:47:00Z</time>
      </trkpt>
      <trkpt lat="45.60044" lon="6.11726">
        <ele>1452.14</ele>
        <time>2012-12-12T14:47:13Z</time>
      </trkpt>
      <trkpt lat="45.60032" lon="6.11722">
        <ele>1455.38</ele>
        <time>2012-12-12T14:47:25Z</time>
      </trkpt>
      <trkpt lat="45.60022" lon="6.11715">
        <ele>1458.12</ele>
        <time>2012-12-12T14:47:37Z</time>
      </trkpt>
      <trkpt lat="45.60021" lon="6.11714">
        <ele>1458.42</ele>
        <time>2012-12-12T14:47:38Z</time>
      </trkpt>
      <trkpt lat="45.60008" lon="6.11705">
        <ele>1461.42</ele>
        <time>2012-12-12T14:47:52Z</time>
      </trkpt>
      <trkpt lat="45.6" lon="6.11704">
        <ele>1462.83</ele>
        <time>2012-12-12T14:48:03Z</time>
      </trkpt>
      <trkpt lat="45.59987" lon="6.11694">
        <ele>1463.75</ele>
        <time>2012-12-12T14:48:18Z</time>
      </trkpt>
      <trkpt lat="45.59966" lon="6.11679">
        <ele>1464.94</ele>
        <time>2012-12-12T14:48:34Z</time>
      </trkpt>
      <trkpt lat="45.59946" lon="6.11669">
        <ele>1465.27</ele>
        <time>2012-12-12T14:48:48Z</time>
      </trkpt>
      <trkpt lat="45.59926" lon="6.11654">
        <ele>1465.39</ele>
        <time>2012-12-12T14:49:02Z</time>
      </trkpt>
      <trkpt lat="45.59906" lon="6.11639">
        <ele>1466.23</ele>
        <time>2012-12-12T14:49:17Z</time>
      </trkpt>
      <trkpt lat="45.59887" lon="6.11623">
        <ele>1466.32</ele>
        <time>2012-12-12T14:49:32Z</time>
      </trkpt>
      <trkpt lat="45.59865" lon="6.11609">
        <ele>1467</ele>
        <time>2012-12-12T14:49:47Z</time>
      </trkpt>
      <trkpt lat="45.59847" lon="6.11606">
        <ele>1468.77</ele>
        <time>2012-12-12T14:50:00Z</time>
      </trkpt>
      <trkpt lat="45.59828" lon="6.11605">
        <ele>1470.88</ele>
        <time>2012-12-12T14:50:13Z</time>
      </trkpt>
      <trkpt lat="45.59815" lon="6.11604">
        <ele>1472.75</ele>
        <time>2012-12-12T14:50:24Z</time>
      </trkpt>
      <trkpt lat="45.59799" lon="6.11602">
        <ele>1475.4</ele>
        <time>2012-12-12T14:50:38Z</time>
      </trkpt>
      <trkpt lat="45.59787" lon="6.11602">
        <ele>1476.51</ele>
        <time>2012-12-12T14:50:48Z</time>
      </trkpt>
      <trkpt lat="45.59773" lon="6.11603">
        <ele>1478.57</ele>
        <time>2012-12-12T14:51:00Z</time>
      </trkpt>
      <trkpt lat="45.59753" lon="6.11598">
        <ele>1481.21</ele>
        <time>2012-12-12T14:51:15Z</time>
      </trkpt>
      <trkpt lat="45.5974" lon="6.11596">
        <ele>1483.06</ele>
        <time>2012-12-12T14:51:26Z</time>
      </trkpt>
      <trkpt lat="45.59726" lon="6.11592">
        <ele>1486.16</ele>
        <time>2012-12-12T14:51:39Z</time>
      </trkpt>
      <trkpt lat="45.59718" lon="6.1159">
        <ele>1487.52</ele>
        <time>2012-12-12T14:51:50Z</time>
      </trkpt>
      <trkpt lat="45.59716" lon="6.11588">
        <ele>1488.5</ele>
        <time>2012-12-12T14:52:02Z</time>
      </trkpt>
      <trkpt lat="45.59705" lon="6.11588">
        <ele>1489.5</ele>
        <time>2012-12-12T14:52:16Z</time>
      </trkpt>
      <trkpt lat="45.59687" lon="6.11587">
        <ele>1492.58</ele>
        <time>2012-12-12T14:52:29Z</time>
      </trkpt>
      <trkpt lat="45.5967" lon="6.11583">
        <ele>1495.37</ele>
        <time>2012-12-12T14:52:42Z</time>
      </trkpt>
      <trkpt lat="45.59656" lon="6.11579">
        <ele>1498.07</ele>
        <time>2012-12-12T14:52:54Z</time>
      </trkpt>
      <trkpt lat="45.59644" lon="6.11576">
        <ele>1499.83</ele>
        <time>2012-12-12T14:53:03Z</time>
      </trkpt>
      <trkpt lat="45.59635" lon="6.11573">
        <ele>1500.7</ele>
        <time>2012-12-12T14:53:10Z</time>
      </trkpt>
      <trkpt lat="45.59614" lon="6.11565">
        <ele>1502.8</ele>
        <time>2012-12-12T14:53:25Z</time>
      </trkpt>
      <trkpt lat="45.59595" lon="6.11557">
        <ele>1504.09</ele>
        <time>2012-12-12T14:53:39Z</time>
      </trkpt>
      <trkpt lat="45.59578" lon="6.11547">
        <ele>1505.45</ele>
        <time>2012-12-12T14:53:52Z</time>
      </trkpt>
      <trkpt lat="45.59559" lon="6.11539">
        <ele>1506.94</ele>
        <time>2012-12-12T14:54:06Z</time>
      </trkpt>
      <trkpt lat="45.59542" lon="6.11531">
        <ele>1508.73</ele>
        <time>2012-12-12T14:54:18Z</time>
      </trkpt>
      <trkpt lat="45.59524" lon="6.11526">
        <ele>1510.29</ele>
        <time>2012-12-12T14:54:31Z</time>
      </trkpt>
      <trkpt lat="45.59508" lon="6.11518">
        <ele>1511.66</ele>
        <time>2012-12-12T14:54:44Z</time>
      </trkpt>
      <trkpt lat="45.59493" lon="6.11513">
        <ele>1513.14</ele>
        <time>2012-12-12T14:54:56Z</time>
      </trkpt>
      <trkpt lat="45.59478" lon="6.11508">
        <ele>1515.77</ele>
        <time>2012-12-12T14:55:08Z</time>
      </trkpt>
      <trkpt lat="45.59468" lon="6.11503">
        <ele>1518.49</ele>
        <time>2012-12-12T14:55:17Z</time>
      </trkpt>
      <trkpt lat="45.59455" lon="6.11498">
        <ele>1521.66</ele>
        <time>2012-12-12T14:55:29Z</time>
      </trkpt>
      <trkpt lat="45.59441" lon="6.11498">
        <ele>1524.02</ele>
        <time>2012-12-12T14:55:41Z</time>
      </trkpt>
      <trkpt lat="45.59435" lon="6.11501">
        <ele>1525.42</ele>
        <time>2012-12-12T14:55:55Z</time>
      </trkpt>
      <trkpt lat="45.59425" lon="6.11516">
        <ele>1527.46</ele>
        <time>2012-12-12T14:56:12Z</time>
      </trkpt>
      <trkpt lat="45.59411" lon="6.11534">
        <ele>1529.52</ele>
        <time>2012-12-12T14:56:25Z</time>
      </trkpt>
      <trkpt lat="45.59411" lon="6.11535">
        <ele>1529.66</ele>
        <time>2012-12-12T14:56:26Z</time>
      </trkpt>
      <trkpt lat="45.59404" lon="6.11553">
        <ele>1532.18</ele>
        <time>2012-12-12T14:56:37Z</time>
      </trkpt>
      <trkpt lat="45.59395" lon="6.11574">
        <ele>1535.39</ele>
        <time>2012-12-12T14:56:51Z</time>
      </trkpt>
      <trkpt lat="45.59394" lon="6.11577">
        <ele>1536.07</ele>
        <time>2012-12-12T14:56:53Z</time>
      </trkpt>
      <trkpt lat="45.59388" lon="6.11581">
        <ele>1537.21</ele>
        <time>2012-12-12T14:56:58Z</time>
      </trkpt>
      <trkpt lat="45.5938" lon="6.1159">
        <ele>1540.47</ele>
        <time>2012-12-12T14:57:08Z</time>
      </trkpt>
      <trkpt lat="45.59375" lon="6.11597">
        <ele>1543.11</ele>
        <time>2012-12-12T14:57:15Z</time>
      </trkpt>
      <trkpt lat="45.59371" lon="6.11607">
        <ele>1544.95</ele>
        <time>2012-12-12T14:57:23Z</time>
      </trkpt>
      <trkpt lat="45.59373" lon="6.11618">
        <ele>1547.41</ele>
        <time>2012-12-12T14:57:36Z</time>
      </trkpt>
      <trkpt lat="45.59371" lon="6.11618">
        <ele>1547.38</ele>
        <time>2012-12-12T14:57:43Z</time>
      </trkpt>
      <trkpt lat="45.5936" lon="6.11625">
        <ele>1545.66</ele>
        <time>2012-12-12T14:57:53Z</time>
      </trkpt>
      <trkpt lat="45.59355" lon="6.11629">
        <ele>1544.82</ele>
        <time>2012-12-12T14:57:58Z</time>
      </trkpt>
      <trkpt lat="45.59353" lon="6.11626">
        <ele>1543.55</ele>
        <time>2012-12-12T14:58:12Z</time>
      </trkpt>
      <trkpt lat="45.59353" lon="6.11625">
        <ele>1543.11</ele>
        <time>2012-12-12T14:58:21Z</time>
      </trkpt>
      <trkpt lat="45.59379" lon="6.11612">
        <ele>1547.46</ele>
        <time>2012-12-12T15:13:23Z</time>
      </trkpt>
      <trkpt lat="45.59379" lon="6.11612">
        <ele>1546.9</ele>
        <time>2012-12-12T15:14:06Z</time>
      </trkpt>
      <trkpt lat="45.59379" lon="6.11612">
        <ele>1546.56</ele>
        <time>2012-12-12T15:14:30Z</time>
      </trkpt>
      <trkpt lat="45.59379" lon="6.11611">
        <ele>1546.78</ele>
        <time>2012-12-12T15:14:56Z</time>
      </trkpt>
      <trkpt lat="45.59379" lon="6.11611">
        <ele>1546.68</ele>
        <time>2012-12-12T15:15:18Z</time>
      </trkpt>
      <trkpt lat="45.59378" lon="6.11612">
        <ele>1546.77</ele>
        <time>2012-12-12T15:15:36Z</time>
      </trkpt>
      <trkpt lat="45.59377" lon="6.11613">
        <ele>1547.2</ele>
        <time>2012-12-12T15:15:51Z</time>
      </trkpt>
      <trkpt lat="45.59379" lon="6.11612">
        <ele>1546.47</ele>
        <time>2012-12-12T15:16:05Z</time>
      </trkpt>
      <trkpt lat="45.5938" lon="6.11611">
        <ele>1545.89</ele>
        <time>2012-12-12T15:16:25Z</time>
      </trkpt>
      <trkpt lat="45.5938" lon="6.11612">
        <ele>1546.07</ele>
        <time>2012-12-12T15:16:49Z</time>
      </trkpt>
      <trkpt lat="45.59381" lon="6.11615">
        <ele>1546.46</ele>
        <time>2012-12-12T15:17:23Z</time>
      </trkpt>
      <trkpt lat="45.5938" lon="6.11615">
        <ele>1546.49</ele>
        <time>2012-12-12T15:17:46Z</time>
      </trkpt>
      <trkpt lat="45.59379" lon="6.11612">
        <ele>1546.06</ele>
        <time>2012-12-12T15:18:00Z</time>
      </trkpt>
      <trkpt lat="45.59375" lon="6.11609">
        <ele>1545.41</ele>
        <time>2012-12-12T15:18:19Z</time>
      </trkpt>
      <trkpt lat="45.59374" lon="6.11609">
        <ele>1544.96</ele>
        <time>2012-12-12T15:18:47Z</time>
      </trkpt>
      <trkpt lat="45.59378" lon="6.11611">
        <ele>1545.62</ele>
        <time>2012-12-12T15:19:03Z</time>
      </trkpt>
      <trkpt lat="45.59379" lon="6.1161">
        <ele>1546.24</ele>
        <time>2012-12-12T15:19:18Z</time>
      </trkpt>
      <trkpt lat="45.5938" lon="6.1161">
        <ele>1545.47</ele>
        <time>2012-12-12T15:19:37Z</time>
      </trkpt>
      <trkpt lat="45.5938" lon="6.1161">
        <ele>1546.5</ele>
        <time>2012-12-12T15:19:57Z</time>
      </trkpt>
      <trkpt lat="45.59379" lon="6.11612">
        <ele>1546.04</ele>
        <time>2012-12-12T15:20:13Z</time>
      </trkpt>
      <trkpt lat="45.59379" lon="6.11612">
        <ele>1546.1</ele>
        <time>2012-12-12T15:20:39Z</time>
      </trkpt>
      <trkpt lat="45.5938" lon="6.11612">
        <ele>1546.01</ele>
        <time>2012-12-12T15:21:04Z</time>
      </trkpt>
      <trkpt lat="45.5938" lon="6.11612">
        <ele>1545.31</ele>
        <time>2012-12-12T15:22:05Z</time>
      </trkpt>
      <trkpt lat="45.5938" lon="6.11613">
        <ele>1545.14</ele>
        <time>2012-12-12T15:23:25Z</time>
      </trkpt>
      <trkpt lat="45.5938" lon="6.11613">
        <ele>1544.95</ele>
        <time>2012-12-12T15:24:38Z</time>
      </trkpt>
      <trkpt lat="45.5938" lon="6.11613">
        <ele>1545.1</ele>
        <time>2012-12-12T15:25:22Z</time>
      </trkpt>
      <trkpt lat="45.5938" lon="6.11613">
        <ele>1545.36</ele>
        <time>2012-12-12T15:26:04Z</time>
      </trkpt>
      <trkpt lat="45.59381" lon="6.11613">
        <ele>1545.06</ele>
        <time>2012-12-12T15:26:39Z</time>
      </trkpt>
      <trkpt lat="45.59382" lon="6.11612">
        <ele>1544.82</ele>
        <time>2012-12-12T15:27:33Z</time>
      </trkpt>
      <trkpt lat="45.59382" lon="6.11612">
        <ele>1544.57</ele>
        <time>2012-12-12T15:28:24Z</time>
      </trkpt>
      <trkpt lat="45.59382" lon="6.11612">
        <ele>1544.48</ele>
        <time>2012-12-12T15:29:12Z</time>
      </trkpt>
      <trkpt lat="45.59382" lon="6.11612">
        <ele>1544.6</ele>
        <time>2012-12-12T15:29:50Z</time>
      </trkpt>
      <trkpt lat="45.59383" lon="6.11613">
        <ele>1544.84</ele>
        <time>2012-12-12T15:30:43Z</time>
      </trkpt>
      <trkpt lat="45.59383" lon="6.11613">
        <ele>1544.03</ele>
        <time>2012-12-12T15:31:19Z</time>
      </trkpt>
      <trkpt lat="45.59383" lon="6.11616">
        <ele>1544.24</ele>
        <time>2012-12-12T15:31:44Z</time>
      </trkpt>
      <trkpt lat="45.59383" lon="6.11616">
        <ele>1544.59</ele>
        <time>2012-12-12T15:32:07Z</time>
      </trkpt>
      <trkpt lat="45.59384" lon="6.11614">
        <ele>1543.63</ele>
        <time>2012-12-12T15:32:34Z</time>
      </trkpt>
      <trkpt lat="45.59385" lon="6.11614">
        <ele>1543.23</ele>
        <time>2012-12-12T15:33:05Z</time>
      </trkpt>
      <trkpt lat="45.59386" lon="6.11613">
        <ele>1543.32</ele>
        <time>2012-12-12T15:33:27Z</time>
      </trkpt>
      <trkpt lat="45.59386" lon="6.11614">
        <ele>1543.05</ele>
        <time>2012-12-12T15:33:52Z</time>
      </trkpt>
      <trkpt lat="45.59386" lon="6.11614">
        <ele>1543.4</ele>
        <time>2012-12-12T15:34:14Z</time>
      </trkpt>
      <trkpt lat="45.59386" lon="6.11613">
        <ele>1543.69</ele>
        <time>2012-12-12T15:34:41Z</time>
      </trkpt>
      <trkpt lat="45.59385" lon="6.11615">
        <ele>1543.29</ele>
        <time>2012-12-12T15:34:59Z</time>
      </trkpt>
      <trkpt lat="45.59386" lon="6.11614">
        <ele>1543.21</ele>
        <time>2012-12-12T15:35:21Z</time>
      </trkpt>
      <trkpt lat="45.59386" lon="6.11614">
        <ele>1543.4</ele>
        <time>2012-12-12T15:36:04Z</time>
      </trkpt>
      <trkpt lat="45.59384" lon="6.11616">
        <ele>1543.92</ele>
        <time>2012-12-12T15:36:20Z</time>
      </trkpt>
      <trkpt lat="45.59384" lon="6.11615">
        <ele>1543.79</ele>
        <time>2012-12-12T15:36:33Z</time>
      </trkpt>
      <trkpt lat="45.59385" lon="6.11614">
        <ele>1543.71</ele>
        <time>2012-12-12T15:36:49Z</time>
      </trkpt>
      <trkpt lat="45.59383" lon="6.11616">
        <ele>1543.6</ele>
        <time>2012-12-12T15:37:09Z</time>
      </trkpt>
      <trkpt lat="45.59383" lon="6.11615">
        <ele>1543.59</ele>
        <time>2012-12-12T15:37:25Z</time>
      </trkpt>
      <trkpt lat="45.59383" lon="6.11614">
        <ele>1543.44</ele>
        <time>2012-12-12T15:38:07Z</time>
      </trkpt>
      <trkpt lat="45.59383" lon="6.11613">
        <ele>1542.9</ele>
        <time>2012-12-12T15:38:33Z</time>
      </trkpt>
      <trkpt lat="45.59382" lon="6.11614">
        <ele>1542.99</ele>
        <time>2012-12-12T15:38:52Z</time>
      </trkpt>
      <trkpt lat="45.59382" lon="6.11614">
        <ele>1542.78</ele>
        <time>2012-12-12T15:39:15Z</time>
      </trkpt>
      <trkpt lat="45.59382" lon="6.11613">
        <ele>1542.8</ele>
        <time>2012-12-12T15:39:42Z</time>
      </trkpt>
      <trkpt lat="45.59381" lon="6.11613">
        <ele>1542.73</ele>
        <time>2012-12-12T15:40:09Z</time>
      </trkpt>
      <trkpt lat="45.59381" lon="6.11611">
        <ele>1542.49</ele>
        <time>2012-12-12T15:40:48Z</time>
      </trkpt>
      <trkpt lat="45.59382" lon="6.11609">
        <ele>1542.36</ele>
        <time>2012-12-12T15:41:09Z</time>
      </trkpt>
      <trkpt lat="45.59382" lon="6.11609">
        <ele>1542.17</ele>
        <time>2012-12-12T15:41:30Z</time>
      </trkpt>
      <trkpt lat="45.59381" lon="6.1161">
        <ele>1542.28</ele>
        <time>2012-12-12T15:41:54Z</time>
      </trkpt>
      <trkpt lat="45.5938" lon="6.1161">
        <ele>1542.04</ele>
        <time>2012-12-12T15:42:21Z</time>
      </trkpt>
      <trkpt lat="45.5938" lon="6.11611">
        <ele>1541.96</ele>
        <time>2012-12-12T15:42:42Z</time>
      </trkpt>
      <trkpt lat="45.59381" lon="6.11611">
        <ele>1541.69</ele>
        <time>2012-12-12T15:43:05Z</time>
      </trkpt>
      <trkpt lat="45.59381" lon="6.11611">
        <ele>1541.96</ele>
        <time>2012-12-12T15:43:30Z</time>
      </trkpt>
      <trkpt lat="45.59381" lon="6.11612">
        <ele>1541.92</ele>
        <time>2012-12-12T15:44:17Z</time>
      </trkpt>
      <trkpt lat="45.59381" lon="6.11612">
        <ele>1540.1</ele>
        <time>2012-12-12T15:47:41Z</time>
      </trkpt>
      <trkpt lat="45.59381" lon="6.11612">
        <ele>1539.21</ele>
        <time>2012-12-12T15:51:24Z</time>
      </trkpt>
      <trkpt lat="45.59381" lon="6.11611">
        <ele>1538.88</ele>
        <time>2012-12-12T15:53:54Z</time>
      </trkpt>
      <trkpt lat="45.59381" lon="6.11612">
        <ele>1538.83</ele>
        <time>2012-12-12T15:56:12Z</time>
      </trkpt>
      <trkpt lat="45.59381" lon="6.11612">
        <ele>1538.12</ele>
        <time>2012-12-12T15:58:54Z</time>
      </trkpt>
      <trkpt lat="45.59381" lon="6.11612">
        <ele>1538.74</ele>
        <time>2012-12-12T16:01:14Z</time>
      </trkpt>
      <trkpt lat="45.59382" lon="6.1161">
        <ele>1538.16</ele>
        <time>2012-12-12T16:02:07Z</time>
      </trkpt>
      <trkpt lat="45.59391" lon="6.11591">
        <ele>1533.06</ele>
        <time>2012-12-12T16:02:12Z</time>
      </trkpt>
      <trkpt lat="45.59398" lon="6.11576">
        <ele>1528.26</ele>
        <time>2012-12-12T16:02:14Z</time>
      </trkpt>
      <trkpt lat="45.5941" lon="6.11547">
        <ele>1524.68</ele>
        <time>2012-12-12T16:02:17Z</time>
      </trkpt>
      <trkpt lat="45.59414" lon="6.11539">
        <ele>1523.31</ele>
        <time>2012-12-12T16:02:18Z</time>
      </trkpt>
      <trkpt lat="45.59438" lon="6.11511">
        <ele>1518.05</ele>
        <time>2012-12-12T16:02:22Z</time>
      </trkpt>
      <trkpt lat="45.59471" lon="6.11502">
        <ele>1512.95</ele>
        <time>2012-12-12T16:02:27Z</time>
      </trkpt>
      <trkpt lat="45.59484" lon="6.11499">
        <ele>1511.09</ele>
        <time>2012-12-12T16:02:29Z</time>
      </trkpt>
      <trkpt lat="45.59503" lon="6.11499">
        <ele>1509.12</ele>
        <time>2012-12-12T16:02:32Z</time>
      </trkpt>
      <trkpt lat="45.5955" lon="6.11512">
        <ele>1505.96</ele>
        <time>2012-12-12T16:02:43Z</time>
      </trkpt>
      <trkpt lat="45.59591" lon="6.11523">
        <ele>1502.91</ele>
        <time>2012-12-12T16:02:54Z</time>
      </trkpt>
      <trkpt lat="45.59624" lon="6.11526">
        <ele>1499.87</ele>
        <time>2012-12-12T16:03:04Z</time>
      </trkpt>
      <trkpt lat="45.59628" lon="6.11526">
        <ele>1499.41</ele>
        <time>2012-12-12T16:03:05Z</time>
      </trkpt>
      <trkpt lat="45.59643" lon="6.11522">
        <ele>1496.55</ele>
        <time>2012-12-12T16:03:09Z</time>
      </trkpt>
      <trkpt lat="45.59666" lon="6.11517">
        <ele>1490.75</ele>
        <time>2012-12-12T16:03:15Z</time>
      </trkpt>
      <trkpt lat="45.59691" lon="6.11519">
        <ele>1484.34</ele>
        <time>2012-12-12T16:03:20Z</time>
      </trkpt>
      <trkpt lat="45.59702" lon="6.11513">
        <ele>1480.21</ele>
        <time>2012-12-12T16:03:23Z</time>
      </trkpt>
      <trkpt lat="45.59716" lon="6.11509">
        <ele>1476.21</ele>
        <time>2012-12-12T16:03:26Z</time>
      </trkpt>
      <trkpt lat="45.5972" lon="6.1151">
        <ele>1474.54</ele>
        <time>2012-12-12T16:03:27Z</time>
      </trkpt>
      <trkpt lat="45.5974" lon="6.11521">
        <ele>1469.78</ele>
        <time>2012-12-12T16:03:31Z</time>
      </trkpt>
      <trkpt lat="45.59761" lon="6.11534">
        <ele>1464.96</ele>
        <time>2012-12-12T16:03:35Z</time>
      </trkpt>
      <trkpt lat="45.59775" lon="6.11527">
        <ele>1461.27</ele>
        <time>2012-12-12T16:03:39Z</time>
      </trkpt>
      <trkpt lat="45.59791" lon="6.11522">
        <ele>1455.71</ele>
        <time>2012-12-12T16:03:43Z</time>
      </trkpt>
      <trkpt lat="45.59805" lon="6.11524">
        <ele>1452.42</ele>
        <time>2012-12-12T16:03:47Z</time>
      </trkpt>
      <trkpt lat="45.59812" lon="6.11513">
        <ele>1448.44</ele>
        <time>2012-12-12T16:03:50Z</time>
      </trkpt>
      <trkpt lat="45.59815" lon="6.11507">
        <ele>1444.32</ele>
        <time>2012-12-12T16:03:52Z</time>
      </trkpt>
      <trkpt lat="45.5982" lon="6.11503">
        <ele>1440.91</ele>
        <time>2012-12-12T16:03:54Z</time>
      </trkpt>
      <trkpt lat="45.59828" lon="6.11502">
        <ele>1437.02</ele>
        <time>2012-12-12T16:03:57Z</time>
      </trkpt>
      <trkpt lat="45.59827" lon="6.11498">
        <ele>1434.92</ele>
        <time>2012-12-12T16:03:58Z</time>
      </trkpt>
      <trkpt lat="45.59825" lon="6.11491">
        <ele>1431.87</ele>
        <time>2012-12-12T16:04:00Z</time>
      </trkpt>
      <trkpt lat="45.59831" lon="6.11486">
        <ele>1426.21</ele>
        <time>2012-12-12T16:04:04Z</time>
      </trkpt>
      <trkpt lat="45.59834" lon="6.1148">
        <ele>1422.64</ele>
        <time>2012-12-12T16:04:06Z</time>
      </trkpt>
      <trkpt lat="45.59843" lon="6.11478">
        <ele>1417.94</ele>
        <time>2012-12-12T16:04:09Z</time>
      </trkpt>
      <trkpt lat="45.59844" lon="6.1147">
        <ele>1413.86</ele>
        <time>2012-12-12T16:04:11Z</time>
      </trkpt>
      <trkpt lat="45.5985" lon="6.11464">
        <ele>1408.73</ele>
        <time>2012-12-12T16:04:14Z</time>
      </trkpt>
      <trkpt lat="45.59856" lon="6.11461">
        <ele>1404.77</ele>
        <time>2012-12-12T16:04:16Z</time>
      </trkpt>
      <trkpt lat="45.59862" lon="6.11459">
        <ele>1401.45</ele>
        <time>2012-12-12T16:04:18Z</time>
      </trkpt>
      <trkpt lat="45.59871" lon="6.11461">
        <ele>1397.92</ele>
        <time>2012-12-12T16:04:21Z</time>
      </trkpt>
      <trkpt lat="45.59875" lon="6.11457">
        <ele>1394.83</ele>
        <time>2012-12-12T16:04:23Z</time>
      </trkpt>
      <trkpt lat="45.59887" lon="6.11454">
        <ele>1388.66</ele>
        <time>2012-12-12T16:04:27Z</time>
      </trkpt>
      <trkpt lat="45.59901" lon="6.11456">
        <ele>1385.3</ele>
        <time>2012-12-12T16:04:31Z</time>
      </trkpt>
      <trkpt lat="45.59916" lon="6.11449">
        <ele>1380.28</ele>
        <time>2012-12-12T16:04:35Z</time>
      </trkpt>
      <trkpt lat="45.59925" lon="6.1145">
        <ele>1378.4</ele>
        <time>2012-12-12T16:04:37Z</time>
      </trkpt>
      <trkpt lat="45.59933" lon="6.11443">
        <ele>1373.31</ele>
        <time>2012-12-12T16:04:40Z</time>
      </trkpt>
      <trkpt lat="45.59936" lon="6.1144">
        <ele>1371.58</ele>
        <time>2012-12-12T16:04:41Z</time>
      </trkpt>
      <trkpt lat="45.59928" lon="6.11427">
        <ele>1366.4</ele>
        <time>2012-12-12T16:04:47Z</time>
      </trkpt>
      <trkpt lat="45.59932" lon="6.11411">
        <ele>1362.36</ele>
        <time>2012-12-12T16:04:51Z</time>
      </trkpt>
      <trkpt lat="45.59925" lon="6.11398">
        <ele>1359.26</ele>
        <time>2012-12-12T16:04:54Z</time>
      </trkpt>
      <trkpt lat="45.59925" lon="6.11382">
        <ele>1355.92</ele>
        <time>2012-12-12T16:04:58Z</time>
      </trkpt>
      <trkpt lat="45.59923" lon="6.11373">
        <ele>1351.98</ele>
        <time>2012-12-12T16:05:01Z</time>
      </trkpt>
      <trkpt lat="45.59928" lon="6.11364">
        <ele>1348.82</ele>
        <time>2012-12-12T16:05:04Z</time>
      </trkpt>
      <trkpt lat="45.59929" lon="6.11358">
        <ele>1345.38</ele>
        <time>2012-12-12T16:05:07Z</time>
      </trkpt>
      <trkpt lat="45.5993" lon="6.11347">
        <ele>1341.91</ele>
        <time>2012-12-12T16:05:10Z</time>
      </trkpt>
      <trkpt lat="45.59932" lon="6.1134">
        <ele>1338.57</ele>
        <time>2012-12-12T16:05:13Z</time>
      </trkpt>
      <trkpt lat="45.59931" lon="6.11338">
        <ele>1337.31</ele>
        <time>2012-12-12T16:05:14Z</time>
      </trkpt>
      <trkpt lat="45.5992" lon="6.11331">
        <ele>1334.24</ele>
        <time>2012-12-12T16:05:18Z</time>
      </trkpt>
      <trkpt lat="45.59919" lon="6.11321">
        <ele>1329.64</ele>
        <time>2012-12-12T16:05:22Z</time>
      </trkpt>
      <trkpt lat="45.59923" lon="6.11315">
        <ele>1326.38</ele>
        <time>2012-12-12T16:05:25Z</time>
      </trkpt>
      <trkpt lat="45.59929" lon="6.11307">
        <ele>1322.86</ele>
        <time>2012-12-12T16:05:30Z</time>
      </trkpt>
      <trkpt lat="45.59924" lon="6.11296">
        <ele>1317.99</ele>
        <time>2012-12-12T16:05:34Z</time>
      </trkpt>
      <trkpt lat="45.59924" lon="6.11293">
        <ele>1316.4</ele>
        <time>2012-12-12T16:05:35Z</time>
      </trkpt>
      <trkpt lat="45.59934" lon="6.11282">
        <ele>1310.79</ele>
        <time>2012-12-12T16:05:40Z</time>
      </trkpt>
      <trkpt lat="45.59948" lon="6.11281">
        <ele>1306.37</ele>
        <time>2012-12-12T16:05:48Z</time>
      </trkpt>
      <trkpt lat="45.59952" lon="6.11281">
        <ele>1303.16</ele>
        <time>2012-12-12T16:05:55Z</time>
      </trkpt>
      <trkpt lat="45.59954" lon="6.11282">
        <ele>1300</ele>
        <time>2012-12-12T16:05:58Z</time>
      </trkpt>
      <trkpt lat="45.59955" lon="6.11283">
        <ele>1295.15</ele>
        <time>2012-12-12T16:05:59Z</time>
      </trkpt>
      <trkpt lat="45.59957" lon="6.11286">
        <ele>1296.04</ele>
        <time>2012-12-12T16:06:03Z</time>
      </trkpt>
      <trkpt lat="45.59958" lon="6.11287">
        <ele>1299.41</ele>
        <time>2012-12-12T16:06:05Z</time>
      </trkpt>
      <trkpt lat="45.59958" lon="6.11288">
        <ele>1302.71</ele>
        <time>2012-12-12T16:06:06Z</time>
      </trkpt>
      <trkpt lat="45.59958" lon="6.11288">
        <ele>1302.05</ele>
        <time>2012-12-12T16:06:07Z</time>
      </trkpt>
      <trkpt lat="45.5996" lon="6.1129">
        <ele>1298.77</ele>
        <time>2012-12-12T16:06:16Z</time>
      </trkpt>
      <trkpt lat="45.59967" lon="6.11284">
        <ele>1294.91</ele>
        <time>2012-12-12T16:06:21Z</time>
      </trkpt>
      <trkpt lat="45.5997" lon="6.11285">
        <ele>1291.29</ele>
        <time>2012-12-12T16:06:24Z</time>
      </trkpt>
      <trkpt lat="45.59971" lon="6.11284">
        <ele>1290.85</ele>
        <time>2012-12-12T16:06:25Z</time>
      </trkpt>
      <trkpt lat="45.59973" lon="6.1128">
        <ele>1289.87</ele>
        <time>2012-12-12T16:06:27Z</time>
      </trkpt>
      <trkpt lat="45.59973" lon="6.11278">
        <ele>1288.72</ele>
        <time>2012-12-12T16:06:28Z</time>
      </trkpt>
      <trkpt lat="45.59978" lon="6.11274">
        <ele>1284.02</ele>
        <time>2012-12-12T16:06:31Z</time>
      </trkpt>
      <trkpt lat="45.5998" lon="6.11266">
        <ele>1279.79</ele>
        <time>2012-12-12T16:06:34Z</time>
      </trkpt>
      <trkpt lat="45.59982" lon="6.11264">
        <ele>1276.33</ele>
        <time>2012-12-12T16:06:36Z</time>
      </trkpt>
      <trkpt lat="45.59991" lon="6.11264">
        <ele>1273.3</ele>
        <time>2012-12-12T16:06:42Z</time>
      </trkpt>
      <trkpt lat="45.59986" lon="6.11253">
        <ele>1268.47</ele>
        <time>2012-12-12T16:06:47Z</time>
      </trkpt>
      <trkpt lat="45.59988" lon="6.11243">
        <ele>1267.24</ele>
        <time>2012-12-12T16:06:49Z</time>
      </trkpt>
      <trkpt lat="45.59994" lon="6.11241">
        <ele>1264.78</ele>
        <time>2012-12-12T16:06:52Z</time>
      </trkpt>
      <trkpt lat="45.59995" lon="6.11233">
        <ele>1261.98</ele>
        <time>2012-12-12T16:06:55Z</time>
      </trkpt>
      <trkpt lat="45.59995" lon="6.11225">
        <ele>1257.25</ele>
        <time>2012-12-12T16:06:58Z</time>
      </trkpt>
      <trkpt lat="45.59999" lon="6.1121">
        <ele>1252.27</ele>
        <time>2012-12-12T16:07:03Z</time>
      </trkpt>
      <trkpt lat="45.60002" lon="6.1121">
        <ele>1251.24</ele>
        <time>2012-12-12T16:07:05Z</time>
      </trkpt>
      <trkpt lat="45.60008" lon="6.11212">
        <ele>1248.48</ele>
        <time>2012-12-12T16:07:09Z</time>
      </trkpt>
      <trkpt lat="45.60009" lon="6.11207">
        <ele>1244.68</ele>
        <time>2012-12-12T16:07:13Z</time>
      </trkpt>
      <trkpt lat="45.60008" lon="6.11199">
        <ele>1241.18</ele>
        <time>2012-12-12T16:07:16Z</time>
      </trkpt>
      <trkpt lat="45.60014" lon="6.11199">
        <ele>1236.65</ele>
        <time>2012-12-12T16:07:21Z</time>
      </trkpt>
      <trkpt lat="45.60019" lon="6.11199">
        <ele>1233.32</ele>
        <time>2012-12-12T16:07:23Z</time>
      </trkpt>
      <trkpt lat="45.60025" lon="6.11203">
        <ele>1229.8</ele>
        <time>2012-12-12T16:07:26Z</time>
      </trkpt>
      <trkpt lat="45.6003" lon="6.11206">
        <ele>1226.79</ele>
        <time>2012-12-12T16:07:29Z</time>
      </trkpt>
      <trkpt lat="45.60038" lon="6.11201">
        <ele>1223.37</ele>
        <time>2012-12-12T16:07:31Z</time>
      </trkpt>
      <trkpt lat="45.60049" lon="6.11206">
        <ele>1218.11</ele>
        <time>2012-12-12T16:07:35Z</time>
      </trkpt>
      <trkpt lat="45.6006" lon="6.1121">
        <ele>1214.92</ele>
        <time>2012-12-12T16:07:38Z</time>
      </trkpt>
      <trkpt lat="45.60062" lon="6.1121">
        <ele>1214.04</ele>
        <time>2012-12-12T16:07:40Z</time>
      </trkpt>
      <trkpt lat="45.60064" lon="6.11211">
        <ele>1213.31</ele>
        <time>2012-12-12T16:07:45Z</time>
      </trkpt>
      <trkpt lat="45.60065" lon="6.11214">
        <ele>1213.2</ele>
        <time>2012-12-12T16:07:47Z</time>
      </trkpt>
      <trkpt lat="45.60074" lon="6.11221">
        <ele>1213.19</ele>
        <time>2012-12-12T16:07:51Z</time>
      </trkpt>
      <trkpt lat="45.60082" lon="6.11222">
        <ele>1212.8</ele>
        <time>2012-12-12T16:07:54Z</time>
      </trkpt>
      <trkpt lat="45.601" lon="6.11227">
        <ele>1208.97</ele>
        <time>2012-12-12T16:08:01Z</time>
      </trkpt>
      <trkpt lat="45.60103" lon="6.11229">
        <ele>1208.6</ele>
        <time>2012-12-12T16:08:02Z</time>
      </trkpt>
      <trkpt lat="45.60115" lon="6.11231">
        <ele>1204.83</ele>
        <time>2012-12-12T16:08:07Z</time>
      </trkpt>
      <trkpt lat="45.60125" lon="6.11235">
        <ele>1201.01</ele>
        <time>2012-12-12T16:08:11Z</time>
      </trkpt>
      <trkpt lat="45.60137" lon="6.1124">
        <ele>1195.67</ele>
        <time>2012-12-12T16:08:14Z</time>
      </trkpt>
      <trkpt lat="45.60148" lon="6.11239">
        <ele>1192.37</ele>
        <time>2012-12-12T16:08:16Z</time>
      </trkpt>
      <trkpt lat="45.60168" lon="6.11238">
        <ele>1184.12</ele>
        <time>2012-12-12T16:08:20Z</time>
      </trkpt>
      <trkpt lat="45.60181" lon="6.11236">
        <ele>1178.18</ele>
        <time>2012-12-12T16:08:23Z</time>
      </trkpt>
      <trkpt lat="45.60191" lon="6.11229">
        <ele>1173.61</ele>
        <time>2012-12-12T16:08:25Z</time>
      </trkpt>
      <trkpt lat="45.60204" lon="6.11228">
        <ele>1168.62</ele>
        <time>2012-12-12T16:08:27Z</time>
      </trkpt>
      <trkpt lat="45.60214" lon="6.11224">
        <ele>1165.59</ele>
        <time>2012-12-12T16:08:29Z</time>
      </trkpt>
      <trkpt lat="45.60233" lon="6.1123">
        <ele>1161.64</ele>
        <time>2012-12-12T16:08:33Z</time>
      </trkpt>
      <trkpt lat="45.60249" lon="6.11229">
        <ele>1158.12</ele>
        <time>2012-12-12T16:08:36Z</time>
      </trkpt>
      <trkpt lat="45.60267" lon="6.11238">
        <ele>1153.37</ele>
        <time>2012-12-12T16:08:39Z</time>
      </trkpt>
      <trkpt lat="45.60284" lon="6.11239">
        <ele>1150.08</ele>
        <time>2012-12-12T16:08:41Z</time>
      </trkpt>
      <trkpt lat="45.603" lon="6.11251">
        <ele>1144.73</ele>
        <time>2012-12-12T16:08:43Z</time>
      </trkpt>
      <trkpt lat="45.60317" lon="6.11247">
        <ele>1141.1</ele>
        <time>2012-12-12T16:08:45Z</time>
      </trkpt>
      <trkpt lat="45.60333" lon="6.1125">
        <ele>1137.62</ele>
        <time>2012-12-12T16:08:47Z</time>
      </trkpt>
      <trkpt lat="45.60347" lon="6.1125">
        <ele>1134.71</ele>
        <time>2012-12-12T16:08:49Z</time>
      </trkpt>
      <trkpt lat="45.60378" lon="6.11244">
        <ele>1128.75</ele>
        <time>2012-12-12T16:08:54Z</time>
      </trkpt>
      <trkpt lat="45.60391" lon="6.11236">
        <ele>1125.61</ele>
        <time>2012-12-12T16:08:57Z</time>
      </trkpt>
      <trkpt lat="45.60401" lon="6.11231">
        <ele>1122.21</ele>
        <time>2012-12-12T16:09:00Z</time>
      </trkpt>
      <trkpt lat="45.60406" lon="6.1123">
        <ele>1120.93</ele>
        <time>2012-12-12T16:09:01Z</time>
      </trkpt>
      <trkpt lat="45.60419" lon="6.11226">
        <ele>1114.47</ele>
        <time>2012-12-12T16:09:05Z</time>
      </trkpt>
      <trkpt lat="45.60431" lon="6.11227">
        <ele>1109.47</ele>
        <time>2012-12-12T16:09:07Z</time>
      </trkpt>
      <trkpt lat="45.60442" lon="6.11236">
        <ele>1104.46</ele>
        <time>2012-12-12T16:09:09Z</time>
      </trkpt>
      <trkpt lat="45.60447" lon="6.11233">
        <ele>1102.23</ele>
        <time>2012-12-12T16:09:10Z</time>
      </trkpt>
      <trkpt lat="45.60466" lon="6.11227">
        <ele>1094.7</ele>
        <time>2012-12-12T16:09:14Z</time>
      </trkpt>
      <trkpt lat="45.60469" lon="6.11229">
        <ele>1093.15</ele>
        <time>2012-12-12T16:09:16Z</time>
      </trkpt>
      <trkpt lat="45.60476" lon="6.11219">
        <ele>1089.35</ele>
        <time>2012-12-12T16:09:20Z</time>
      </trkpt>
      <trkpt lat="45.60486" lon="6.11224">
        <ele>1084.94</ele>
        <time>2012-12-12T16:09:22Z</time>
      </trkpt>
      <trkpt lat="45.60493" lon="6.11234">
        <ele>1081.67</ele>
        <time>2012-12-12T16:09:24Z</time>
      </trkpt>
      <trkpt lat="45.605" lon="6.11229">
        <ele>1078.25</ele>
        <time>2012-12-12T16:09:26Z</time>
      </trkpt>
      <trkpt lat="45.60513" lon="6.11221">
        <ele>1072.61</ele>
        <time>2012-12-12T16:09:28Z</time>
      </trkpt>
      <trkpt lat="45.60526" lon="6.11226">
        <ele>1067.22</ele>
        <time>2012-12-12T16:09:30Z</time>
      </trkpt>
      <trkpt lat="45.60544" lon="6.11229">
        <ele>1062.66</ele>
        <time>2012-12-12T16:09:33Z</time>
      </trkpt>
      <trkpt lat="45.60558" lon="6.11226">
        <ele>1059.51</ele>
        <time>2012-12-12T16:09:35Z</time>
      </trkpt>
      <trkpt lat="45.60568" lon="6.1123">
        <ele>1055.86</ele>
        <time>2012-12-12T16:09:37Z</time>
      </trkpt>
      <trkpt lat="45.60581" lon="6.11229">
        <ele>1051.5</ele>
        <time>2012-12-12T16:09:39Z</time>
      </trkpt>
      <trkpt lat="45.60594" lon="6.11237">
        <ele>1047.72</ele>
        <time>2012-12-12T16:09:41Z</time>
      </trkpt>
      <trkpt lat="45.60613" lon="6.11245">
        <ele>1044.41</ele>
        <time>2012-12-12T16:09:44Z</time>
      </trkpt>
      <trkpt lat="45.60621" lon="6.11246">
        <ele>1043.75</ele>
        <time>2012-12-12T16:09:46Z</time>
      </trkpt>
      <trkpt lat="45.6064" lon="6.11259">
        <ele>1040.39</ele>
        <time>2012-12-12T16:09:55Z</time>
      </trkpt>
      <trkpt lat="45.60644" lon="6.11263">
        <ele>1039.55</ele>
        <time>2012-12-12T16:09:57Z</time>
      </trkpt>
      <trkpt lat="45.60663" lon="6.11274">
        <ele>1035.18</ele>
        <time>2012-12-12T16:10:03Z</time>
      </trkpt>
      <trkpt lat="45.60669" lon="6.11274">
        <ele>1033.86</ele>
        <time>2012-12-12T16:10:04Z</time>
      </trkpt>
      <trkpt lat="45.60684" lon="6.11271">
        <ele>1029.72</ele>
        <time>2012-12-12T16:10:08Z</time>
      </trkpt>
      <trkpt lat="45.60697" lon="6.11265">
        <ele>1025.52</ele>
        <time>2012-12-12T16:10:12Z</time>
      </trkpt>
      <trkpt lat="45.60711" lon="6.11262">
        <ele>1020.92</ele>
        <time>2012-12-12T16:10:16Z</time>
      </trkpt>
      <trkpt lat="45.60718" lon="6.11259">
        <ele>1017.85</ele>
        <time>2012-12-12T16:10:18Z</time>
      </trkpt>
      <trkpt lat="45.60727" lon="6.11256">
        <ele>1014.08</ele>
        <time>2012-12-12T16:10:21Z</time>
      </trkpt>
      <trkpt lat="45.60734" lon="6.11254">
        <ele>1010.61</ele>
        <time>2012-12-12T16:10:26Z</time>
      </trkpt>
      <trkpt lat="45.60739" lon="6.11249">
        <ele>1008.28</ele>
        <time>2012-12-12T16:10:29Z</time>
      </trkpt>
      <trkpt lat="45.60745" lon="6.1125">
        <ele>1004.37</ele>
        <time>2012-12-12T16:10:41Z</time>
      </trkpt>
      <trkpt lat="45.60745" lon="6.1125">
        <ele>1003.39</ele>
        <time>2012-12-12T16:10:43Z</time>
      </trkpt>
      <trkpt lat="45.60746" lon="6.11254">
        <ele>999.93</ele>
        <time>2012-12-12T16:11:00Z</time>
      </trkpt>
      <trkpt lat="45.60757" lon="6.11263">
        <ele>998.87</ele>
        <time>2012-12-12T16:11:23Z</time>
      </trkpt>
      <trkpt lat="45.60784" lon="6.11285">
        <ele>996.06</ele>
        <time>2012-12-12T16:11:46Z</time>
      </trkpt>
      <trkpt lat="45.60805" lon="6.11295">
        <ele>994.92</ele>
        <time>2012-12-12T16:12:14Z</time>
      </trkpt>
      <trkpt lat="45.60828" lon="6.11307">
        <ele>994.62</ele>
        <time>2012-12-12T16:12:36Z</time>
      </trkpt>
      <trkpt lat="45.60832" lon="6.11297">
        <ele>992.46</ele>
        <time>2012-12-12T16:12:58Z</time>
      </trkpt>
      <trkpt lat="45.60837" lon="6.11286">
        <ele>990.42</ele>
        <time>2012-12-12T16:13:17Z</time>
      </trkpt>
      <trkpt lat="45.60849" lon="6.11289">
        <ele>990.66</ele>
        <time>2012-12-12T16:13:35Z</time>
      </trkpt>
      <trkpt lat="45.60856" lon="6.11281">
        <ele>988.73</ele>
        <time>2012-12-12T16:13:39Z</time>
      </trkpt>
      <trkpt lat="45.60863" lon="6.1125">
        <ele>984.69</ele>
        <time>2012-12-12T16:13:45Z</time>
      </trkpt>
      <trkpt lat="45.60864" lon="6.11225">
        <ele>981.66</ele>
        <time>2012-12-12T16:13:50Z</time>
      </trkpt>
      <trkpt lat="45.60864" lon="6.11208">
        <ele>978.44</ele>
        <time>2012-12-12T16:13:56Z</time>
      </trkpt>
      <trkpt lat="45.60865" lon="6.11199">
        <ele>974.98</ele>
        <time>2012-12-12T16:14:05Z</time>
      </trkpt>
      <trkpt lat="45.60872" lon="6.11175">
        <ele>973.43</ele>
        <time>2012-12-12T16:14:15Z</time>
      </trkpt>
      <trkpt lat="45.60884" lon="6.11149">
        <ele>971.59</ele>
        <time>2012-12-12T16:14:28Z</time>
      </trkpt>
      <trkpt lat="45.60886" lon="6.11146">
        <ele>971.46</ele>
        <time>2012-12-12T16:14:29Z</time>
      </trkpt>
      <trkpt lat="45.60887" lon="6.11138">
        <ele>970.34</ele>
        <time>2012-12-12T16:14:45Z</time>
      </trkpt>
      <trkpt lat="45.60886" lon="6.11137">
        <ele>967.74</ele>
        <time>2012-12-12T16:14:49Z</time>
      </trkpt>
      <trkpt lat="45.60886" lon="6.11136">
        <ele>971.86</ele>
        <time>2012-12-12T16:14:54Z</time>
      </trkpt>
      <trkpt lat="45.60886" lon="6.11136">
        <ele>971.51</ele>
        <time>2012-12-12T16:14:55Z</time>
      </trkpt>
      <trkpt lat="45.60886" lon="6.11136">
        <ele>970.04</ele>
        <time>2012-12-12T16:15:24Z</time>
      </trkpt>
    </trkseg>
  </trk>
</gpx>